<?xml version="1.0" encoding="UTF-8" standalone="no" ?>
<gpx xmlns="http://www.topografix.com/GPX/1/1" xmlns:xsi="http://www.w3.org/2001/XMLSchema-instance" xsi:schemaLocation="http://www.topografix.com/GPX/1/1 http://www.topografix.com/GPX/1/1/gpx.xsd" version="1.1" creator="VisuGPX - https://www.visugpx.com">
  <metadata>
    <name>cima gelé 18/12</name>
    <desc><![CDATA[Partie de la mini balade initialement prévue, mais froid polaire   maux de bide pour moi...]]></desc>
  </metadata>
  <trk>
    <name><![CDATA[(null)]]></name>
    <desc><![CDATA[(null)]]></desc>
    <trkseg>
      <trkpt lat="43.78473" lon="7.24445">
        <ele>496.1</ele>
        <time>2010-12-18T06:49:47Z</time>
      </trkpt>
      <trkpt lat="43.78473" lon="7.24445">
        <ele>496.1</ele>
        <time>2010-12-18T06:49:52Z</time>
      </trkpt>
      <trkpt lat="43.78449" lon="7.24429">
        <ele>573</ele>
        <time>2010-12-18T06:50:02Z</time>
      </trkpt>
      <trkpt lat="43.78449" lon="7.24429">
        <ele>573</ele>
        <time>2010-12-18T06:50:07Z</time>
      </trkpt>
      <trkpt lat="43.78426" lon="7.24416">
        <ele>582</ele>
        <time>2010-12-18T06:50:19Z</time>
      </trkpt>
      <trkpt lat="43.78426" lon="7.24416">
        <ele>582</ele>
        <time>2010-12-18T06:50:21Z</time>
      </trkpt>
      <trkpt lat="43.78433" lon="7.24425">
        <ele>573</ele>
        <time>2010-12-18T06:50:39Z</time>
      </trkpt>
      <trkpt lat="43.78443" lon="7.24422">
        <ele>568</ele>
        <time>2010-12-18T06:50:50Z</time>
      </trkpt>
      <trkpt lat="43.78452" lon="7.24423">
        <ele>569</ele>
        <time>2010-12-18T06:50:54Z</time>
      </trkpt>
      <trkpt lat="43.78462" lon="7.24421">
        <ele>572</ele>
        <time>2010-12-18T06:50:58Z</time>
      </trkpt>
      <trkpt lat="43.78468" lon="7.2441">
        <ele>572</ele>
        <time>2010-12-18T06:51:03Z</time>
      </trkpt>
      <trkpt lat="43.78468" lon="7.24395">
        <ele>572</ele>
        <time>2010-12-18T06:51:07Z</time>
      </trkpt>
      <trkpt lat="43.78465" lon="7.24381">
        <ele>573</ele>
        <time>2010-12-18T06:51:12Z</time>
      </trkpt>
      <trkpt lat="43.78464" lon="7.24379">
        <ele>573</ele>
        <time>2010-12-18T06:51:13Z</time>
      </trkpt>
      <trkpt lat="43.78456" lon="7.2437">
        <ele>574</ele>
        <time>2010-12-18T06:51:17Z</time>
      </trkpt>
      <trkpt lat="43.78447" lon="7.24364">
        <ele>575</ele>
        <time>2010-12-18T06:51:21Z</time>
      </trkpt>
      <trkpt lat="43.78438" lon="7.2436">
        <ele>575</ele>
        <time>2010-12-18T06:51:25Z</time>
      </trkpt>
      <trkpt lat="43.78428" lon="7.24357">
        <ele>575</ele>
        <time>2010-12-18T06:51:29Z</time>
      </trkpt>
      <trkpt lat="43.78444" lon="7.24358">
        <ele>575</ele>
        <time>2010-12-18T06:51:45Z</time>
      </trkpt>
      <trkpt lat="43.78453" lon="7.24362">
        <ele>575</ele>
        <time>2010-12-18T06:51:48Z</time>
      </trkpt>
      <trkpt lat="43.78464" lon="7.24366">
        <ele>576</ele>
        <time>2010-12-18T06:51:52Z</time>
      </trkpt>
      <trkpt lat="43.78466" lon="7.24367">
        <ele>577</ele>
        <time>2010-12-18T06:51:53Z</time>
      </trkpt>
      <trkpt lat="43.78477" lon="7.24371">
        <ele>578</ele>
        <time>2010-12-18T06:51:56Z</time>
      </trkpt>
      <trkpt lat="43.78486" lon="7.24374">
        <ele>578</ele>
        <time>2010-12-18T06:52:00Z</time>
      </trkpt>
      <trkpt lat="43.78496" lon="7.24377">
        <ele>580</ele>
        <time>2010-12-18T06:52:03Z</time>
      </trkpt>
      <trkpt lat="43.78505" lon="7.24381">
        <ele>582</ele>
        <time>2010-12-18T06:52:10Z</time>
      </trkpt>
      <trkpt lat="43.78514" lon="7.24383">
        <ele>584</ele>
        <time>2010-12-18T06:52:15Z</time>
      </trkpt>
      <trkpt lat="43.78524" lon="7.24387">
        <ele>584</ele>
        <time>2010-12-18T06:52:19Z</time>
      </trkpt>
      <trkpt lat="43.78529" lon="7.2439">
        <ele>584</ele>
        <time>2010-12-18T06:52:21Z</time>
      </trkpt>
      <trkpt lat="43.78538" lon="7.24396">
        <ele>584</ele>
        <time>2010-12-18T06:52:25Z</time>
      </trkpt>
      <trkpt lat="43.78546" lon="7.24401">
        <ele>585</ele>
        <time>2010-12-18T06:52:28Z</time>
      </trkpt>
      <trkpt lat="43.78548" lon="7.24402">
        <ele>585</ele>
        <time>2010-12-18T06:52:30Z</time>
      </trkpt>
      <trkpt lat="43.78557" lon="7.24406">
        <ele>585</ele>
        <time>2010-12-18T06:52:32Z</time>
      </trkpt>
      <trkpt lat="43.78567" lon="7.24409">
        <ele>586</ele>
        <time>2010-12-18T06:52:37Z</time>
      </trkpt>
      <trkpt lat="43.78575" lon="7.24413">
        <ele>587</ele>
        <time>2010-12-18T06:52:40Z</time>
      </trkpt>
      <trkpt lat="43.78585" lon="7.24418">
        <ele>587</ele>
        <time>2010-12-18T06:52:44Z</time>
      </trkpt>
      <trkpt lat="43.78594" lon="7.24421">
        <ele>588</ele>
        <time>2010-12-18T06:52:49Z</time>
      </trkpt>
      <trkpt lat="43.78605" lon="7.2442">
        <ele>589</ele>
        <time>2010-12-18T06:52:54Z</time>
      </trkpt>
      <trkpt lat="43.78615" lon="7.24417">
        <ele>589</ele>
        <time>2010-12-18T06:53:00Z</time>
      </trkpt>
      <trkpt lat="43.78623" lon="7.24415">
        <ele>590</ele>
        <time>2010-12-18T06:53:05Z</time>
      </trkpt>
      <trkpt lat="43.78633" lon="7.24411">
        <ele>590</ele>
        <time>2010-12-18T06:53:11Z</time>
      </trkpt>
      <trkpt lat="43.78643" lon="7.24406">
        <ele>591</ele>
        <time>2010-12-18T06:53:16Z</time>
      </trkpt>
      <trkpt lat="43.78652" lon="7.24402">
        <ele>591</ele>
        <time>2010-12-18T06:53:22Z</time>
      </trkpt>
      <trkpt lat="43.78661" lon="7.244">
        <ele>592</ele>
        <time>2010-12-18T06:53:29Z</time>
      </trkpt>
      <trkpt lat="43.78675" lon="7.24401">
        <ele>592</ele>
        <time>2010-12-18T06:53:40Z</time>
      </trkpt>
      <trkpt lat="43.78684" lon="7.24403">
        <ele>592</ele>
        <time>2010-12-18T06:53:47Z</time>
      </trkpt>
      <trkpt lat="43.78694" lon="7.24403">
        <ele>591</ele>
        <time>2010-12-18T06:53:54Z</time>
      </trkpt>
      <trkpt lat="43.78702" lon="7.24402">
        <ele>592</ele>
        <time>2010-12-18T06:54:00Z</time>
      </trkpt>
      <trkpt lat="43.78711" lon="7.24402">
        <ele>593</ele>
        <time>2010-12-18T06:54:08Z</time>
      </trkpt>
      <trkpt lat="43.7872" lon="7.24405">
        <ele>594</ele>
        <time>2010-12-18T06:54:15Z</time>
      </trkpt>
      <trkpt lat="43.78727" lon="7.24409">
        <ele>594</ele>
        <time>2010-12-18T06:54:20Z</time>
      </trkpt>
      <trkpt lat="43.78735" lon="7.24414">
        <ele>595</ele>
        <time>2010-12-18T06:54:26Z</time>
      </trkpt>
      <trkpt lat="43.78744" lon="7.24421">
        <ele>596</ele>
        <time>2010-12-18T06:54:32Z</time>
      </trkpt>
      <trkpt lat="43.78755" lon="7.24427">
        <ele>597</ele>
        <time>2010-12-18T06:54:39Z</time>
      </trkpt>
      <trkpt lat="43.78756" lon="7.24427">
        <ele>597</ele>
        <time>2010-12-18T06:54:40Z</time>
      </trkpt>
      <trkpt lat="43.78764" lon="7.24434">
        <ele>598</ele>
        <time>2010-12-18T06:54:46Z</time>
      </trkpt>
      <trkpt lat="43.7877" lon="7.24445">
        <ele>599</ele>
        <time>2010-12-18T06:54:53Z</time>
      </trkpt>
      <trkpt lat="43.78774" lon="7.24457">
        <ele>601</ele>
        <time>2010-12-18T06:54:59Z</time>
      </trkpt>
      <trkpt lat="43.78778" lon="7.24472">
        <ele>604</ele>
        <time>2010-12-18T06:55:07Z</time>
      </trkpt>
      <trkpt lat="43.7878" lon="7.24484">
        <ele>605</ele>
        <time>2010-12-18T06:55:15Z</time>
      </trkpt>
      <trkpt lat="43.78783" lon="7.24497">
        <ele>606</ele>
        <time>2010-12-18T06:55:24Z</time>
      </trkpt>
      <trkpt lat="43.78787" lon="7.24503">
        <ele>606</ele>
        <time>2010-12-18T06:55:29Z</time>
      </trkpt>
      <trkpt lat="43.78795" lon="7.2451">
        <ele>607</ele>
        <time>2010-12-18T06:55:35Z</time>
      </trkpt>
      <trkpt lat="43.78803" lon="7.24516">
        <ele>607</ele>
        <time>2010-12-18T06:55:42Z</time>
      </trkpt>
      <trkpt lat="43.78811" lon="7.24522">
        <ele>609</ele>
        <time>2010-12-18T06:55:49Z</time>
      </trkpt>
      <trkpt lat="43.78819" lon="7.2453">
        <ele>612</ele>
        <time>2010-12-18T06:55:56Z</time>
      </trkpt>
      <trkpt lat="43.7882" lon="7.24531">
        <ele>613</ele>
        <time>2010-12-18T06:55:57Z</time>
      </trkpt>
      <trkpt lat="43.78827" lon="7.24539">
        <ele>616</ele>
        <time>2010-12-18T06:56:03Z</time>
      </trkpt>
      <trkpt lat="43.78835" lon="7.24547">
        <ele>618</ele>
        <time>2010-12-18T06:56:08Z</time>
      </trkpt>
      <trkpt lat="43.78843" lon="7.24555">
        <ele>620</ele>
        <time>2010-12-18T06:56:14Z</time>
      </trkpt>
      <trkpt lat="43.78849" lon="7.24565">
        <ele>621</ele>
        <time>2010-12-18T06:56:21Z</time>
      </trkpt>
      <trkpt lat="43.7885" lon="7.24578">
        <ele>621</ele>
        <time>2010-12-18T06:56:28Z</time>
      </trkpt>
      <trkpt lat="43.78845" lon="7.2459">
        <ele>622</ele>
        <time>2010-12-18T06:56:35Z</time>
      </trkpt>
      <trkpt lat="43.78836" lon="7.24595">
        <ele>622</ele>
        <time>2010-12-18T06:56:41Z</time>
      </trkpt>
      <trkpt lat="43.78828" lon="7.246">
        <ele>622</ele>
        <time>2010-12-18T06:56:45Z</time>
      </trkpt>
      <trkpt lat="43.78822" lon="7.24611">
        <ele>623</ele>
        <time>2010-12-18T06:56:50Z</time>
      </trkpt>
      <trkpt lat="43.78823" lon="7.24619">
        <ele>624</ele>
        <time>2010-12-18T06:56:54Z</time>
      </trkpt>
      <trkpt lat="43.78831" lon="7.24628">
        <ele>625</ele>
        <time>2010-12-18T06:57:00Z</time>
      </trkpt>
      <trkpt lat="43.78839" lon="7.24634">
        <ele>627</ele>
        <time>2010-12-18T06:57:07Z</time>
      </trkpt>
      <trkpt lat="43.78842" lon="7.24636">
        <ele>626</ele>
        <time>2010-12-18T06:57:09Z</time>
      </trkpt>
      <trkpt lat="43.78851" lon="7.24642">
        <ele>626</ele>
        <time>2010-12-18T06:57:18Z</time>
      </trkpt>
      <trkpt lat="43.7886" lon="7.2465">
        <ele>628</ele>
        <time>2010-12-18T06:57:26Z</time>
      </trkpt>
      <trkpt lat="43.78869" lon="7.24655">
        <ele>630</ele>
        <time>2010-12-18T06:57:33Z</time>
      </trkpt>
      <trkpt lat="43.78878" lon="7.24655">
        <ele>632</ele>
        <time>2010-12-18T06:57:40Z</time>
      </trkpt>
      <trkpt lat="43.78884" lon="7.24652">
        <ele>633</ele>
        <time>2010-12-18T06:57:43Z</time>
      </trkpt>
      <trkpt lat="43.78892" lon="7.24645">
        <ele>634</ele>
        <time>2010-12-18T06:57:48Z</time>
      </trkpt>
      <trkpt lat="43.78901" lon="7.24638">
        <ele>635</ele>
        <time>2010-12-18T06:57:53Z</time>
      </trkpt>
      <trkpt lat="43.78902" lon="7.24638">
        <ele>635</ele>
        <time>2010-12-18T06:57:54Z</time>
      </trkpt>
      <trkpt lat="43.78912" lon="7.24637">
        <ele>636</ele>
        <time>2010-12-18T06:57:59Z</time>
      </trkpt>
      <trkpt lat="43.78921" lon="7.24637">
        <ele>637</ele>
        <time>2010-12-18T06:58:04Z</time>
      </trkpt>
      <trkpt lat="43.78931" lon="7.24641">
        <ele>637</ele>
        <time>2010-12-18T06:58:09Z</time>
      </trkpt>
      <trkpt lat="43.78939" lon="7.24649">
        <ele>639</ele>
        <time>2010-12-18T06:58:14Z</time>
      </trkpt>
      <trkpt lat="43.78946" lon="7.24659">
        <ele>639</ele>
        <time>2010-12-18T06:58:19Z</time>
      </trkpt>
      <trkpt lat="43.78953" lon="7.24669">
        <ele>640</ele>
        <time>2010-12-18T06:58:24Z</time>
      </trkpt>
      <trkpt lat="43.78955" lon="7.24672">
        <ele>640</ele>
        <time>2010-12-18T06:58:26Z</time>
      </trkpt>
      <trkpt lat="43.78962" lon="7.2468">
        <ele>641</ele>
        <time>2010-12-18T06:58:31Z</time>
      </trkpt>
      <trkpt lat="43.78971" lon="7.24685">
        <ele>642</ele>
        <time>2010-12-18T06:58:36Z</time>
      </trkpt>
      <trkpt lat="43.78981" lon="7.24686">
        <ele>642</ele>
        <time>2010-12-18T06:58:41Z</time>
      </trkpt>
      <trkpt lat="43.7899" lon="7.24685">
        <ele>643</ele>
        <time>2010-12-18T06:58:46Z</time>
      </trkpt>
      <trkpt lat="43.78999" lon="7.24683">
        <ele>643</ele>
        <time>2010-12-18T06:58:52Z</time>
      </trkpt>
      <trkpt lat="43.79009" lon="7.24682">
        <ele>643</ele>
        <time>2010-12-18T06:58:57Z</time>
      </trkpt>
      <trkpt lat="43.79018" lon="7.24679">
        <ele>643</ele>
        <time>2010-12-18T06:59:02Z</time>
      </trkpt>
      <trkpt lat="43.79028" lon="7.24676">
        <ele>644</ele>
        <time>2010-12-18T06:59:07Z</time>
      </trkpt>
      <trkpt lat="43.79038" lon="7.24674">
        <ele>645</ele>
        <time>2010-12-18T06:59:12Z</time>
      </trkpt>
      <trkpt lat="43.79047" lon="7.24674">
        <ele>646</ele>
        <time>2010-12-18T06:59:16Z</time>
      </trkpt>
      <trkpt lat="43.79056" lon="7.24674">
        <ele>646</ele>
        <time>2010-12-18T06:59:21Z</time>
      </trkpt>
      <trkpt lat="43.79065" lon="7.24672">
        <ele>646</ele>
        <time>2010-12-18T06:59:25Z</time>
      </trkpt>
      <trkpt lat="43.79075" lon="7.2467">
        <ele>646</ele>
        <time>2010-12-18T06:59:29Z</time>
      </trkpt>
      <trkpt lat="43.79085" lon="7.24667">
        <ele>647</ele>
        <time>2010-12-18T06:59:34Z</time>
      </trkpt>
      <trkpt lat="43.79095" lon="7.24664">
        <ele>648</ele>
        <time>2010-12-18T06:59:38Z</time>
      </trkpt>
      <trkpt lat="43.79105" lon="7.24662">
        <ele>649</ele>
        <time>2010-12-18T06:59:42Z</time>
      </trkpt>
      <trkpt lat="43.79115" lon="7.2466">
        <ele>650</ele>
        <time>2010-12-18T06:59:47Z</time>
      </trkpt>
      <trkpt lat="43.79125" lon="7.24658">
        <ele>650</ele>
        <time>2010-12-18T06:59:51Z</time>
      </trkpt>
      <trkpt lat="43.79135" lon="7.24655">
        <ele>649</ele>
        <time>2010-12-18T06:59:55Z</time>
      </trkpt>
      <trkpt lat="43.79144" lon="7.24651">
        <ele>649</ele>
        <time>2010-12-18T06:59:59Z</time>
      </trkpt>
      <trkpt lat="43.79153" lon="7.24646">
        <ele>650</ele>
        <time>2010-12-18T07:00:03Z</time>
      </trkpt>
      <trkpt lat="43.79162" lon="7.24642">
        <ele>652</ele>
        <time>2010-12-18T07:00:06Z</time>
      </trkpt>
      <trkpt lat="43.79166" lon="7.2464">
        <ele>652</ele>
        <time>2010-12-18T07:00:08Z</time>
      </trkpt>
      <trkpt lat="43.79175" lon="7.24637">
        <ele>652</ele>
        <time>2010-12-18T07:00:12Z</time>
      </trkpt>
      <trkpt lat="43.79183" lon="7.24633">
        <ele>653</ele>
        <time>2010-12-18T07:00:15Z</time>
      </trkpt>
      <trkpt lat="43.79192" lon="7.24629">
        <ele>655</ele>
        <time>2010-12-18T07:00:19Z</time>
      </trkpt>
      <trkpt lat="43.792" lon="7.24624">
        <ele>656</ele>
        <time>2010-12-18T07:00:24Z</time>
      </trkpt>
      <trkpt lat="43.79208" lon="7.24614">
        <ele>657</ele>
        <time>2010-12-18T07:00:29Z</time>
      </trkpt>
      <trkpt lat="43.79213" lon="7.24602">
        <ele>657</ele>
        <time>2010-12-18T07:00:34Z</time>
      </trkpt>
      <trkpt lat="43.79218" lon="7.24589">
        <ele>657</ele>
        <time>2010-12-18T07:00:39Z</time>
      </trkpt>
      <trkpt lat="43.79223" lon="7.24577">
        <ele>658</ele>
        <time>2010-12-18T07:00:44Z</time>
      </trkpt>
      <trkpt lat="43.79229" lon="7.24566">
        <ele>659</ele>
        <time>2010-12-18T07:00:49Z</time>
      </trkpt>
      <trkpt lat="43.79234" lon="7.24555">
        <ele>659</ele>
        <time>2010-12-18T07:00:53Z</time>
      </trkpt>
      <trkpt lat="43.79236" lon="7.24552">
        <ele>659</ele>
        <time>2010-12-18T07:00:55Z</time>
      </trkpt>
      <trkpt lat="43.79242" lon="7.24543">
        <ele>659</ele>
        <time>2010-12-18T07:00:59Z</time>
      </trkpt>
      <trkpt lat="43.7925" lon="7.24533">
        <ele>659</ele>
        <time>2010-12-18T07:01:05Z</time>
      </trkpt>
      <trkpt lat="43.79257" lon="7.24525">
        <ele>660</ele>
        <time>2010-12-18T07:01:09Z</time>
      </trkpt>
      <trkpt lat="43.79264" lon="7.2452">
        <ele>660</ele>
        <time>2010-12-18T07:01:13Z</time>
      </trkpt>
      <trkpt lat="43.79272" lon="7.24513">
        <ele>661</ele>
        <time>2010-12-18T07:01:17Z</time>
      </trkpt>
      <trkpt lat="43.7928" lon="7.24505">
        <ele>663</ele>
        <time>2010-12-18T07:01:22Z</time>
      </trkpt>
      <trkpt lat="43.79288" lon="7.24497">
        <ele>663</ele>
        <time>2010-12-18T07:01:27Z</time>
      </trkpt>
      <trkpt lat="43.79295" lon="7.24489">
        <ele>665</ele>
        <time>2010-12-18T07:01:31Z</time>
      </trkpt>
      <trkpt lat="43.79296" lon="7.24487">
        <ele>665</ele>
        <time>2010-12-18T07:01:32Z</time>
      </trkpt>
      <trkpt lat="43.79303" lon="7.24477">
        <ele>664</ele>
        <time>2010-12-18T07:01:37Z</time>
      </trkpt>
      <trkpt lat="43.7931" lon="7.24468">
        <ele>664</ele>
        <time>2010-12-18T07:01:41Z</time>
      </trkpt>
      <trkpt lat="43.79317" lon="7.2446">
        <ele>665</ele>
        <time>2010-12-18T07:01:46Z</time>
      </trkpt>
      <trkpt lat="43.79326" lon="7.24452">
        <ele>666</ele>
        <time>2010-12-18T07:01:51Z</time>
      </trkpt>
      <trkpt lat="43.79327" lon="7.24452">
        <ele>666</ele>
        <time>2010-12-18T07:01:52Z</time>
      </trkpt>
      <trkpt lat="43.79336" lon="7.24448">
        <ele>667</ele>
        <time>2010-12-18T07:01:57Z</time>
      </trkpt>
      <trkpt lat="43.79344" lon="7.24443">
        <ele>668</ele>
        <time>2010-12-18T07:02:01Z</time>
      </trkpt>
      <trkpt lat="43.79353" lon="7.24438">
        <ele>668</ele>
        <time>2010-12-18T07:02:06Z</time>
      </trkpt>
      <trkpt lat="43.79356" lon="7.24437">
        <ele>669</ele>
        <time>2010-12-18T07:02:07Z</time>
      </trkpt>
      <trkpt lat="43.79365" lon="7.24431">
        <ele>669</ele>
        <time>2010-12-18T07:02:12Z</time>
      </trkpt>
      <trkpt lat="43.79374" lon="7.24426">
        <ele>670</ele>
        <time>2010-12-18T07:02:16Z</time>
      </trkpt>
      <trkpt lat="43.79382" lon="7.2442">
        <ele>670</ele>
        <time>2010-12-18T07:02:21Z</time>
      </trkpt>
      <trkpt lat="43.79391" lon="7.24413">
        <ele>670</ele>
        <time>2010-12-18T07:02:26Z</time>
      </trkpt>
      <trkpt lat="43.79399" lon="7.24406">
        <ele>670</ele>
        <time>2010-12-18T07:02:30Z</time>
      </trkpt>
      <trkpt lat="43.79408" lon="7.24399">
        <ele>672</ele>
        <time>2010-12-18T07:02:35Z</time>
      </trkpt>
      <trkpt lat="43.79416" lon="7.24393">
        <ele>673</ele>
        <time>2010-12-18T07:02:40Z</time>
      </trkpt>
      <trkpt lat="43.79424" lon="7.24385">
        <ele>672</ele>
        <time>2010-12-18T07:02:45Z</time>
      </trkpt>
      <trkpt lat="43.79425" lon="7.24384">
        <ele>672</ele>
        <time>2010-12-18T07:02:45Z</time>
      </trkpt>
      <trkpt lat="43.79433" lon="7.24377">
        <ele>672</ele>
        <time>2010-12-18T07:02:50Z</time>
      </trkpt>
      <trkpt lat="43.7944" lon="7.24368">
        <ele>674</ele>
        <time>2010-12-18T07:02:54Z</time>
      </trkpt>
      <trkpt lat="43.79448" lon="7.2436">
        <ele>674</ele>
        <time>2010-12-18T07:03:00Z</time>
      </trkpt>
      <trkpt lat="43.79457" lon="7.24351">
        <ele>675</ele>
        <time>2010-12-18T07:03:05Z</time>
      </trkpt>
      <trkpt lat="43.79465" lon="7.24343">
        <ele>675</ele>
        <time>2010-12-18T07:03:10Z</time>
      </trkpt>
      <trkpt lat="43.79472" lon="7.24334">
        <ele>675</ele>
        <time>2010-12-18T07:03:16Z</time>
      </trkpt>
      <trkpt lat="43.7948" lon="7.24325">
        <ele>676</ele>
        <time>2010-12-18T07:03:21Z</time>
      </trkpt>
      <trkpt lat="43.79488" lon="7.24317">
        <ele>676</ele>
        <time>2010-12-18T07:03:25Z</time>
      </trkpt>
      <trkpt lat="43.79496" lon="7.24309">
        <ele>676</ele>
        <time>2010-12-18T07:03:30Z</time>
      </trkpt>
      <trkpt lat="43.79503" lon="7.24301">
        <ele>677</ele>
        <time>2010-12-18T07:03:35Z</time>
      </trkpt>
      <trkpt lat="43.79511" lon="7.24293">
        <ele>678</ele>
        <time>2010-12-18T07:03:39Z</time>
      </trkpt>
      <trkpt lat="43.79518" lon="7.24285">
        <ele>680</ele>
        <time>2010-12-18T07:03:43Z</time>
      </trkpt>
      <trkpt lat="43.79525" lon="7.24275">
        <ele>680</ele>
        <time>2010-12-18T07:03:49Z</time>
      </trkpt>
      <trkpt lat="43.79532" lon="7.24266">
        <ele>681</ele>
        <time>2010-12-18T07:03:53Z</time>
      </trkpt>
      <trkpt lat="43.79538" lon="7.24256">
        <ele>681</ele>
        <time>2010-12-18T07:03:58Z</time>
      </trkpt>
      <trkpt lat="43.79545" lon="7.24246">
        <ele>682</ele>
        <time>2010-12-18T07:04:02Z</time>
      </trkpt>
      <trkpt lat="43.79547" lon="7.24243">
        <ele>681</ele>
        <time>2010-12-18T07:04:04Z</time>
      </trkpt>
      <trkpt lat="43.79552" lon="7.24233">
        <ele>682</ele>
        <time>2010-12-18T07:04:08Z</time>
      </trkpt>
      <trkpt lat="43.79557" lon="7.24221">
        <ele>683</ele>
        <time>2010-12-18T07:04:13Z</time>
      </trkpt>
      <trkpt lat="43.79559" lon="7.24213">
        <ele>683</ele>
        <time>2010-12-18T07:04:16Z</time>
      </trkpt>
      <trkpt lat="43.79563" lon="7.242">
        <ele>684</ele>
        <time>2010-12-18T07:04:21Z</time>
      </trkpt>
      <trkpt lat="43.79567" lon="7.24188">
        <ele>684</ele>
        <time>2010-12-18T07:04:25Z</time>
      </trkpt>
      <trkpt lat="43.7957" lon="7.24175">
        <ele>685</ele>
        <time>2010-12-18T07:04:31Z</time>
      </trkpt>
      <trkpt lat="43.79575" lon="7.24162">
        <ele>686</ele>
        <time>2010-12-18T07:04:36Z</time>
      </trkpt>
      <trkpt lat="43.79579" lon="7.24151">
        <ele>686</ele>
        <time>2010-12-18T07:04:41Z</time>
      </trkpt>
      <trkpt lat="43.79589" lon="7.24153">
        <ele>689</ele>
        <time>2010-12-18T07:04:48Z</time>
      </trkpt>
      <trkpt lat="43.79589" lon="7.24167">
        <ele>690</ele>
        <time>2010-12-18T07:04:53Z</time>
      </trkpt>
      <trkpt lat="43.79586" lon="7.2418">
        <ele>690</ele>
        <time>2010-12-18T07:04:57Z</time>
      </trkpt>
      <trkpt lat="43.79583" lon="7.24193">
        <ele>690</ele>
        <time>2010-12-18T07:05:02Z</time>
      </trkpt>
      <trkpt lat="43.79583" lon="7.24198">
        <ele>691</ele>
        <time>2010-12-18T07:05:05Z</time>
      </trkpt>
      <trkpt lat="43.7958" lon="7.24212">
        <ele>692</ele>
        <time>2010-12-18T07:05:10Z</time>
      </trkpt>
      <trkpt lat="43.79578" lon="7.24224">
        <ele>692</ele>
        <time>2010-12-18T07:05:14Z</time>
      </trkpt>
      <trkpt lat="43.79577" lon="7.24238">
        <ele>692</ele>
        <time>2010-12-18T07:05:19Z</time>
      </trkpt>
      <trkpt lat="43.79576" lon="7.24251">
        <ele>693</ele>
        <time>2010-12-18T07:05:25Z</time>
      </trkpt>
      <trkpt lat="43.79573" lon="7.24264">
        <ele>694</ele>
        <time>2010-12-18T07:05:30Z</time>
      </trkpt>
      <trkpt lat="43.79569" lon="7.24276">
        <ele>695</ele>
        <time>2010-12-18T07:05:35Z</time>
      </trkpt>
      <trkpt lat="43.79564" lon="7.24287">
        <ele>696</ele>
        <time>2010-12-18T07:05:39Z</time>
      </trkpt>
      <trkpt lat="43.79559" lon="7.24298">
        <ele>697</ele>
        <time>2010-12-18T07:05:44Z</time>
      </trkpt>
      <trkpt lat="43.79555" lon="7.24307">
        <ele>697</ele>
        <time>2010-12-18T07:05:47Z</time>
      </trkpt>
      <trkpt lat="43.79549" lon="7.24318">
        <ele>698</ele>
        <time>2010-12-18T07:05:52Z</time>
      </trkpt>
      <trkpt lat="43.79543" lon="7.2433">
        <ele>698</ele>
        <time>2010-12-18T07:05:57Z</time>
      </trkpt>
      <trkpt lat="43.7954" lon="7.24337">
        <ele>698</ele>
        <time>2010-12-18T07:06:00Z</time>
      </trkpt>
      <trkpt lat="43.79535" lon="7.24347">
        <ele>699</ele>
        <time>2010-12-18T07:06:05Z</time>
      </trkpt>
      <trkpt lat="43.79528" lon="7.24358">
        <ele>700</ele>
        <time>2010-12-18T07:06:10Z</time>
      </trkpt>
      <trkpt lat="43.79522" lon="7.24368">
        <ele>700</ele>
        <time>2010-12-18T07:06:15Z</time>
      </trkpt>
      <trkpt lat="43.79516" lon="7.24378">
        <ele>701</ele>
        <time>2010-12-18T07:06:19Z</time>
      </trkpt>
      <trkpt lat="43.7951" lon="7.24388">
        <ele>702</ele>
        <time>2010-12-18T07:06:24Z</time>
      </trkpt>
      <trkpt lat="43.79503" lon="7.24399">
        <ele>703</ele>
        <time>2010-12-18T07:06:29Z</time>
      </trkpt>
      <trkpt lat="43.79502" lon="7.244">
        <ele>703</ele>
        <time>2010-12-18T07:06:30Z</time>
      </trkpt>
      <trkpt lat="43.79495" lon="7.24411">
        <ele>703</ele>
        <time>2010-12-18T07:06:35Z</time>
      </trkpt>
      <trkpt lat="43.7949" lon="7.24423">
        <ele>705</ele>
        <time>2010-12-18T07:06:41Z</time>
      </trkpt>
      <trkpt lat="43.79484" lon="7.24432">
        <ele>707</ele>
        <time>2010-12-18T07:06:45Z</time>
      </trkpt>
      <trkpt lat="43.79478" lon="7.24442">
        <ele>708</ele>
        <time>2010-12-18T07:06:50Z</time>
      </trkpt>
      <trkpt lat="43.79471" lon="7.24453">
        <ele>709</ele>
        <time>2010-12-18T07:06:54Z</time>
      </trkpt>
      <trkpt lat="43.79462" lon="7.24463">
        <ele>710</ele>
        <time>2010-12-18T07:06:59Z</time>
      </trkpt>
      <trkpt lat="43.79455" lon="7.24471">
        <ele>710</ele>
        <time>2010-12-18T07:07:03Z</time>
      </trkpt>
      <trkpt lat="43.79451" lon="7.24475">
        <ele>710</ele>
        <time>2010-12-18T07:07:05Z</time>
      </trkpt>
      <trkpt lat="43.79444" lon="7.24484">
        <ele>712</ele>
        <time>2010-12-18T07:07:10Z</time>
      </trkpt>
      <trkpt lat="43.79436" lon="7.24493">
        <ele>712</ele>
        <time>2010-12-18T07:07:14Z</time>
      </trkpt>
      <trkpt lat="43.79429" lon="7.24503">
        <ele>713</ele>
        <time>2010-12-18T07:07:19Z</time>
      </trkpt>
      <trkpt lat="43.79421" lon="7.24511">
        <ele>713</ele>
        <time>2010-12-18T07:07:23Z</time>
      </trkpt>
      <trkpt lat="43.79414" lon="7.2452">
        <ele>715</ele>
        <time>2010-12-18T07:07:28Z</time>
      </trkpt>
      <trkpt lat="43.79407" lon="7.2453">
        <ele>716</ele>
        <time>2010-12-18T07:07:33Z</time>
      </trkpt>
      <trkpt lat="43.794" lon="7.24539">
        <ele>716</ele>
        <time>2010-12-18T07:07:37Z</time>
      </trkpt>
      <trkpt lat="43.79393" lon="7.24548">
        <ele>717</ele>
        <time>2010-12-18T07:07:42Z</time>
      </trkpt>
      <trkpt lat="43.79386" lon="7.24557">
        <ele>717</ele>
        <time>2010-12-18T07:07:46Z</time>
      </trkpt>
      <trkpt lat="43.7938" lon="7.24567">
        <ele>719</ele>
        <time>2010-12-18T07:07:51Z</time>
      </trkpt>
      <trkpt lat="43.79375" lon="7.24579">
        <ele>720</ele>
        <time>2010-12-18T07:07:56Z</time>
      </trkpt>
      <trkpt lat="43.79372" lon="7.24586">
        <ele>720</ele>
        <time>2010-12-18T07:07:59Z</time>
      </trkpt>
      <trkpt lat="43.79368" lon="7.24597">
        <ele>720</ele>
        <time>2010-12-18T07:08:04Z</time>
      </trkpt>
      <trkpt lat="43.79364" lon="7.24609">
        <ele>721</ele>
        <time>2010-12-18T07:08:08Z</time>
      </trkpt>
      <trkpt lat="43.79361" lon="7.24621">
        <ele>722</ele>
        <time>2010-12-18T07:08:13Z</time>
      </trkpt>
      <trkpt lat="43.7936" lon="7.24625">
        <ele>722</ele>
        <time>2010-12-18T07:08:14Z</time>
      </trkpt>
      <trkpt lat="43.79356" lon="7.24637">
        <ele>723</ele>
        <time>2010-12-18T07:08:19Z</time>
      </trkpt>
      <trkpt lat="43.79352" lon="7.2465">
        <ele>724</ele>
        <time>2010-12-18T07:08:23Z</time>
      </trkpt>
      <trkpt lat="43.79348" lon="7.24661">
        <ele>724</ele>
        <time>2010-12-18T07:08:28Z</time>
      </trkpt>
      <trkpt lat="43.79345" lon="7.24674">
        <ele>725</ele>
        <time>2010-12-18T07:08:33Z</time>
      </trkpt>
      <trkpt lat="43.79342" lon="7.24687">
        <ele>726</ele>
        <time>2010-12-18T07:08:37Z</time>
      </trkpt>
      <trkpt lat="43.79338" lon="7.247">
        <ele>727</ele>
        <time>2010-12-18T07:08:42Z</time>
      </trkpt>
      <trkpt lat="43.79335" lon="7.24712">
        <ele>728</ele>
        <time>2010-12-18T07:08:46Z</time>
      </trkpt>
      <trkpt lat="43.79333" lon="7.24725">
        <ele>729</ele>
        <time>2010-12-18T07:08:51Z</time>
      </trkpt>
      <trkpt lat="43.79331" lon="7.24737">
        <ele>729</ele>
        <time>2010-12-18T07:08:55Z</time>
      </trkpt>
      <trkpt lat="43.7933" lon="7.24745">
        <ele>730</ele>
        <time>2010-12-18T07:08:58Z</time>
      </trkpt>
      <trkpt lat="43.79332" lon="7.24759">
        <ele>731</ele>
        <time>2010-12-18T07:09:03Z</time>
      </trkpt>
      <trkpt lat="43.79334" lon="7.24773">
        <ele>732</ele>
        <time>2010-12-18T07:09:09Z</time>
      </trkpt>
      <trkpt lat="43.79335" lon="7.24781">
        <ele>733</ele>
        <time>2010-12-18T07:09:12Z</time>
      </trkpt>
      <trkpt lat="43.79338" lon="7.24796">
        <ele>733</ele>
        <time>2010-12-18T07:09:16Z</time>
      </trkpt>
      <trkpt lat="43.79344" lon="7.24811">
        <ele>734</ele>
        <time>2010-12-18T07:09:19Z</time>
      </trkpt>
      <trkpt lat="43.79352" lon="7.24822">
        <ele>734</ele>
        <time>2010-12-18T07:09:21Z</time>
      </trkpt>
      <trkpt lat="43.7936" lon="7.24828">
        <ele>734</ele>
        <time>2010-12-18T07:09:24Z</time>
      </trkpt>
      <trkpt lat="43.79369" lon="7.24834">
        <ele>734</ele>
        <time>2010-12-18T07:09:27Z</time>
      </trkpt>
      <trkpt lat="43.79379" lon="7.24837">
        <ele>734</ele>
        <time>2010-12-18T07:09:30Z</time>
      </trkpt>
      <trkpt lat="43.79389" lon="7.2484">
        <ele>734</ele>
        <time>2010-12-18T07:09:33Z</time>
      </trkpt>
      <trkpt lat="43.79399" lon="7.24843">
        <ele>734</ele>
        <time>2010-12-18T07:09:36Z</time>
      </trkpt>
      <trkpt lat="43.79408" lon="7.24847">
        <ele>735</ele>
        <time>2010-12-18T07:09:38Z</time>
      </trkpt>
      <trkpt lat="43.79419" lon="7.24852">
        <ele>735</ele>
        <time>2010-12-18T07:09:41Z</time>
      </trkpt>
      <trkpt lat="43.79429" lon="7.24858">
        <ele>735</ele>
        <time>2010-12-18T07:09:43Z</time>
      </trkpt>
      <trkpt lat="43.79439" lon="7.24862">
        <ele>735</ele>
        <time>2010-12-18T07:09:45Z</time>
      </trkpt>
      <trkpt lat="43.79449" lon="7.24867">
        <ele>735</ele>
        <time>2010-12-18T07:09:47Z</time>
      </trkpt>
      <trkpt lat="43.79455" lon="7.24869">
        <ele>735</ele>
        <time>2010-12-18T07:09:49Z</time>
      </trkpt>
      <trkpt lat="43.79466" lon="7.24875">
        <ele>736</ele>
        <time>2010-12-18T07:09:52Z</time>
      </trkpt>
      <trkpt lat="43.79476" lon="7.24879">
        <ele>736</ele>
        <time>2010-12-18T07:09:55Z</time>
      </trkpt>
      <trkpt lat="43.79486" lon="7.24882">
        <ele>738</ele>
        <time>2010-12-18T07:09:58Z</time>
      </trkpt>
      <trkpt lat="43.79495" lon="7.24885">
        <ele>739</ele>
        <time>2010-12-18T07:10:00Z</time>
      </trkpt>
      <trkpt lat="43.79504" lon="7.24889">
        <ele>740</ele>
        <time>2010-12-18T07:10:03Z</time>
      </trkpt>
      <trkpt lat="43.79515" lon="7.24892">
        <ele>740</ele>
        <time>2010-12-18T07:10:07Z</time>
      </trkpt>
      <trkpt lat="43.7952" lon="7.24892">
        <ele>741</ele>
        <time>2010-12-18T07:10:09Z</time>
      </trkpt>
      <trkpt lat="43.7953" lon="7.24893">
        <ele>741</ele>
        <time>2010-12-18T07:10:14Z</time>
      </trkpt>
      <trkpt lat="43.7954" lon="7.24895">
        <ele>742</ele>
        <time>2010-12-18T07:10:18Z</time>
      </trkpt>
      <trkpt lat="43.7955" lon="7.24896">
        <ele>743</ele>
        <time>2010-12-18T07:10:23Z</time>
      </trkpt>
      <trkpt lat="43.79555" lon="7.24896">
        <ele>743</ele>
        <time>2010-12-18T07:10:25Z</time>
      </trkpt>
      <trkpt lat="43.79565" lon="7.24898">
        <ele>744</ele>
        <time>2010-12-18T07:10:29Z</time>
      </trkpt>
      <trkpt lat="43.79575" lon="7.24899">
        <ele>743</ele>
        <time>2010-12-18T07:10:34Z</time>
      </trkpt>
      <trkpt lat="43.79586" lon="7.24898">
        <ele>744</ele>
        <time>2010-12-18T07:10:39Z</time>
      </trkpt>
      <trkpt lat="43.79593" lon="7.24898">
        <ele>745</ele>
        <time>2010-12-18T07:10:42Z</time>
      </trkpt>
      <trkpt lat="43.79603" lon="7.24897">
        <ele>746</ele>
        <time>2010-12-18T07:10:48Z</time>
      </trkpt>
      <trkpt lat="43.79613" lon="7.24896">
        <ele>746</ele>
        <time>2010-12-18T07:10:53Z</time>
      </trkpt>
      <trkpt lat="43.79622" lon="7.24895">
        <ele>746</ele>
        <time>2010-12-18T07:10:58Z</time>
      </trkpt>
      <trkpt lat="43.79632" lon="7.24895">
        <ele>747</ele>
        <time>2010-12-18T07:11:04Z</time>
      </trkpt>
      <trkpt lat="43.79642" lon="7.24891">
        <ele>747</ele>
        <time>2010-12-18T07:11:11Z</time>
      </trkpt>
      <trkpt lat="43.7965" lon="7.24885">
        <ele>748</ele>
        <time>2010-12-18T07:11:16Z</time>
      </trkpt>
      <trkpt lat="43.79657" lon="7.24877">
        <ele>749</ele>
        <time>2010-12-18T07:11:21Z</time>
      </trkpt>
      <trkpt lat="43.79665" lon="7.24868">
        <ele>750</ele>
        <time>2010-12-18T07:11:27Z</time>
      </trkpt>
      <trkpt lat="43.79666" lon="7.24867">
        <ele>750</ele>
        <time>2010-12-18T07:11:28Z</time>
      </trkpt>
      <trkpt lat="43.79673" lon="7.24858">
        <ele>750</ele>
        <time>2010-12-18T07:11:33Z</time>
      </trkpt>
      <trkpt lat="43.79681" lon="7.2485">
        <ele>750</ele>
        <time>2010-12-18T07:11:38Z</time>
      </trkpt>
      <trkpt lat="43.79688" lon="7.24841">
        <ele>750</ele>
        <time>2010-12-18T07:11:44Z</time>
      </trkpt>
      <trkpt lat="43.79696" lon="7.24833">
        <ele>751</ele>
        <time>2010-12-18T07:11:49Z</time>
      </trkpt>
      <trkpt lat="43.79704" lon="7.24824">
        <ele>752</ele>
        <time>2010-12-18T07:11:55Z</time>
      </trkpt>
      <trkpt lat="43.79711" lon="7.24817">
        <ele>752</ele>
        <time>2010-12-18T07:11:59Z</time>
      </trkpt>
      <trkpt lat="43.79718" lon="7.24809">
        <ele>752</ele>
        <time>2010-12-18T07:12:04Z</time>
      </trkpt>
      <trkpt lat="43.79722" lon="7.24806">
        <ele>752</ele>
        <time>2010-12-18T07:12:06Z</time>
      </trkpt>
      <trkpt lat="43.7973" lon="7.24798">
        <ele>752</ele>
        <time>2010-12-18T07:12:12Z</time>
      </trkpt>
      <trkpt lat="43.79739" lon="7.24792">
        <ele>753</ele>
        <time>2010-12-18T07:12:17Z</time>
      </trkpt>
      <trkpt lat="43.79741" lon="7.2479">
        <ele>753</ele>
        <time>2010-12-18T07:12:19Z</time>
      </trkpt>
      <trkpt lat="43.79751" lon="7.24785">
        <ele>753</ele>
        <time>2010-12-18T07:12:24Z</time>
      </trkpt>
      <trkpt lat="43.7976" lon="7.24782">
        <ele>754</ele>
        <time>2010-12-18T07:12:29Z</time>
      </trkpt>
      <trkpt lat="43.79769" lon="7.24779">
        <ele>754</ele>
        <time>2010-12-18T07:12:33Z</time>
      </trkpt>
      <trkpt lat="43.79778" lon="7.24775">
        <ele>756</ele>
        <time>2010-12-18T07:12:38Z</time>
      </trkpt>
      <trkpt lat="43.79786" lon="7.24769">
        <ele>756</ele>
        <time>2010-12-18T07:12:42Z</time>
      </trkpt>
      <trkpt lat="43.79794" lon="7.24762">
        <ele>758</ele>
        <time>2010-12-18T07:12:47Z</time>
      </trkpt>
      <trkpt lat="43.79803" lon="7.24756">
        <ele>759</ele>
        <time>2010-12-18T07:12:51Z</time>
      </trkpt>
      <trkpt lat="43.79812" lon="7.24749">
        <ele>760</ele>
        <time>2010-12-18T07:12:56Z</time>
      </trkpt>
      <trkpt lat="43.7982" lon="7.2474">
        <ele>760</ele>
        <time>2010-12-18T07:13:01Z</time>
      </trkpt>
      <trkpt lat="43.79827" lon="7.24731">
        <ele>761</ele>
        <time>2010-12-18T07:13:05Z</time>
      </trkpt>
      <trkpt lat="43.7983" lon="7.24726">
        <ele>761</ele>
        <time>2010-12-18T07:13:08Z</time>
      </trkpt>
      <trkpt lat="43.79836" lon="7.24715">
        <ele>762</ele>
        <time>2010-12-18T07:13:13Z</time>
      </trkpt>
      <trkpt lat="43.79843" lon="7.24705">
        <ele>763</ele>
        <time>2010-12-18T07:13:18Z</time>
      </trkpt>
      <trkpt lat="43.7985" lon="7.24696">
        <ele>763</ele>
        <time>2010-12-18T07:13:23Z</time>
      </trkpt>
      <trkpt lat="43.79857" lon="7.24688">
        <ele>764</ele>
        <time>2010-12-18T07:13:29Z</time>
      </trkpt>
      <trkpt lat="43.79866" lon="7.24682">
        <ele>765</ele>
        <time>2010-12-18T07:13:34Z</time>
      </trkpt>
      <trkpt lat="43.79874" lon="7.24676">
        <ele>766</ele>
        <time>2010-12-18T07:13:40Z</time>
      </trkpt>
      <trkpt lat="43.79877" lon="7.24674">
        <ele>766</ele>
        <time>2010-12-18T07:13:42Z</time>
      </trkpt>
      <trkpt lat="43.79886" lon="7.24668">
        <ele>767</ele>
        <time>2010-12-18T07:13:48Z</time>
      </trkpt>
      <trkpt lat="43.79894" lon="7.24663">
        <ele>767</ele>
        <time>2010-12-18T07:13:53Z</time>
      </trkpt>
      <trkpt lat="43.79902" lon="7.24656">
        <ele>768</ele>
        <time>2010-12-18T07:13:58Z</time>
      </trkpt>
      <trkpt lat="43.79909" lon="7.24647">
        <ele>768</ele>
        <time>2010-12-18T07:14:04Z</time>
      </trkpt>
      <trkpt lat="43.79915" lon="7.24635">
        <ele>769</ele>
        <time>2010-12-18T07:14:10Z</time>
      </trkpt>
      <trkpt lat="43.79922" lon="7.24626">
        <ele>769</ele>
        <time>2010-12-18T07:14:16Z</time>
      </trkpt>
      <trkpt lat="43.79928" lon="7.24616">
        <ele>769</ele>
        <time>2010-12-18T07:14:21Z</time>
      </trkpt>
      <trkpt lat="43.79933" lon="7.24605">
        <ele>769</ele>
        <time>2010-12-18T07:14:27Z</time>
      </trkpt>
      <trkpt lat="43.79938" lon="7.24594">
        <ele>769</ele>
        <time>2010-12-18T07:14:32Z</time>
      </trkpt>
      <trkpt lat="43.7994" lon="7.24588">
        <ele>768</ele>
        <time>2010-12-18T07:14:34Z</time>
      </trkpt>
      <trkpt lat="43.79942" lon="7.24575">
        <ele>768</ele>
        <time>2010-12-18T07:14:39Z</time>
      </trkpt>
      <trkpt lat="43.79945" lon="7.24561">
        <ele>769</ele>
        <time>2010-12-18T07:14:44Z</time>
      </trkpt>
      <trkpt lat="43.79948" lon="7.24553">
        <ele>769</ele>
        <time>2010-12-18T07:14:47Z</time>
      </trkpt>
      <trkpt lat="43.79953" lon="7.24542">
        <ele>770</ele>
        <time>2010-12-18T07:14:52Z</time>
      </trkpt>
      <trkpt lat="43.79957" lon="7.24535">
        <ele>771</ele>
        <time>2010-12-18T07:14:55Z</time>
      </trkpt>
      <trkpt lat="43.79966" lon="7.24529">
        <ele>772</ele>
        <time>2010-12-18T07:15:00Z</time>
      </trkpt>
      <trkpt lat="43.79975" lon="7.24528">
        <ele>773</ele>
        <time>2010-12-18T07:15:05Z</time>
      </trkpt>
      <trkpt lat="43.79984" lon="7.24529">
        <ele>773</ele>
        <time>2010-12-18T07:15:10Z</time>
      </trkpt>
      <trkpt lat="43.79994" lon="7.2453">
        <ele>774</ele>
        <time>2010-12-18T07:15:15Z</time>
      </trkpt>
      <trkpt lat="43.80004" lon="7.24532">
        <ele>775</ele>
        <time>2010-12-18T07:15:22Z</time>
      </trkpt>
      <trkpt lat="43.80011" lon="7.24534">
        <ele>775</ele>
        <time>2010-12-18T07:15:26Z</time>
      </trkpt>
      <trkpt lat="43.80021" lon="7.24538">
        <ele>776</ele>
        <time>2010-12-18T07:15:32Z</time>
      </trkpt>
      <trkpt lat="43.8003" lon="7.24543">
        <ele>778</ele>
        <time>2010-12-18T07:15:38Z</time>
      </trkpt>
      <trkpt lat="43.80034" lon="7.24544">
        <ele>779</ele>
        <time>2010-12-18T07:15:40Z</time>
      </trkpt>
      <trkpt lat="43.8004" lon="7.24534">
        <ele>779</ele>
        <time>2010-12-18T07:15:46Z</time>
      </trkpt>
      <trkpt lat="43.80042" lon="7.2452">
        <ele>779</ele>
        <time>2010-12-18T07:15:52Z</time>
      </trkpt>
      <trkpt lat="43.80043" lon="7.24511">
        <ele>781</ele>
        <time>2010-12-18T07:15:57Z</time>
      </trkpt>
      <trkpt lat="43.80048" lon="7.24499">
        <ele>781</ele>
        <time>2010-12-18T07:16:03Z</time>
      </trkpt>
      <trkpt lat="43.80052" lon="7.24487">
        <ele>781</ele>
        <time>2010-12-18T07:16:09Z</time>
      </trkpt>
      <trkpt lat="43.80059" lon="7.24476">
        <ele>782</ele>
        <time>2010-12-18T07:16:15Z</time>
      </trkpt>
      <trkpt lat="43.80059" lon="7.24474">
        <ele>782</ele>
        <time>2010-12-18T07:16:16Z</time>
      </trkpt>
      <trkpt lat="43.80065" lon="7.24464">
        <ele>783</ele>
        <time>2010-12-18T07:16:21Z</time>
      </trkpt>
      <trkpt lat="43.80075" lon="7.24463">
        <ele>784</ele>
        <time>2010-12-18T07:16:26Z</time>
      </trkpt>
      <trkpt lat="43.8008" lon="7.24466">
        <ele>784</ele>
        <time>2010-12-18T07:16:28Z</time>
      </trkpt>
      <trkpt lat="43.80089" lon="7.24472">
        <ele>785</ele>
        <time>2010-12-18T07:16:33Z</time>
      </trkpt>
      <trkpt lat="43.80096" lon="7.2448">
        <ele>786</ele>
        <time>2010-12-18T07:16:38Z</time>
      </trkpt>
      <trkpt lat="43.80103" lon="7.24488">
        <ele>788</ele>
        <time>2010-12-18T07:16:43Z</time>
      </trkpt>
      <trkpt lat="43.80106" lon="7.24494">
        <ele>788</ele>
        <time>2010-12-18T07:16:46Z</time>
      </trkpt>
      <trkpt lat="43.80111" lon="7.24505">
        <ele>790</ele>
        <time>2010-12-18T07:16:52Z</time>
      </trkpt>
      <trkpt lat="43.80117" lon="7.24515">
        <ele>792</ele>
        <time>2010-12-18T07:16:57Z</time>
      </trkpt>
      <trkpt lat="43.80123" lon="7.24526">
        <ele>793</ele>
        <time>2010-12-18T07:17:02Z</time>
      </trkpt>
      <trkpt lat="43.80127" lon="7.24532">
        <ele>794</ele>
        <time>2010-12-18T07:17:05Z</time>
      </trkpt>
      <trkpt lat="43.80133" lon="7.24541">
        <ele>795</ele>
        <time>2010-12-18T07:17:10Z</time>
      </trkpt>
      <trkpt lat="43.80139" lon="7.24551">
        <ele>796</ele>
        <time>2010-12-18T07:17:16Z</time>
      </trkpt>
      <trkpt lat="43.8014" lon="7.24552">
        <ele>796</ele>
        <time>2010-12-18T07:17:16Z</time>
      </trkpt>
      <trkpt lat="43.80146" lon="7.24561">
        <ele>796</ele>
        <time>2010-12-18T07:17:22Z</time>
      </trkpt>
      <trkpt lat="43.80148" lon="7.24563">
        <ele>797</ele>
        <time>2010-12-18T07:17:23Z</time>
      </trkpt>
      <trkpt lat="43.80155" lon="7.24573">
        <ele>797</ele>
        <time>2010-12-18T07:17:29Z</time>
      </trkpt>
      <trkpt lat="43.80163" lon="7.24582">
        <ele>799</ele>
        <time>2010-12-18T07:17:36Z</time>
      </trkpt>
      <trkpt lat="43.80172" lon="7.24584">
        <ele>800</ele>
        <time>2010-12-18T07:17:43Z</time>
      </trkpt>
      <trkpt lat="43.80173" lon="7.24584">
        <ele>800</ele>
        <time>2010-12-18T07:17:44Z</time>
      </trkpt>
      <trkpt lat="43.80183" lon="7.24584">
        <ele>801</ele>
        <time>2010-12-18T07:17:51Z</time>
      </trkpt>
      <trkpt lat="43.80192" lon="7.24582">
        <ele>803</ele>
        <time>2010-12-18T07:17:57Z</time>
      </trkpt>
      <trkpt lat="43.80201" lon="7.24579">
        <ele>805</ele>
        <time>2010-12-18T07:18:04Z</time>
      </trkpt>
      <trkpt lat="43.8021" lon="7.24575">
        <ele>807</ele>
        <time>2010-12-18T07:18:11Z</time>
      </trkpt>
      <trkpt lat="43.80215" lon="7.24572">
        <ele>807</ele>
        <time>2010-12-18T07:18:14Z</time>
      </trkpt>
      <trkpt lat="43.80224" lon="7.24567">
        <ele>808</ele>
        <time>2010-12-18T07:18:21Z</time>
      </trkpt>
      <trkpt lat="43.80232" lon="7.24562">
        <ele>809</ele>
        <time>2010-12-18T07:18:29Z</time>
      </trkpt>
      <trkpt lat="43.80241" lon="7.24554">
        <ele>810</ele>
        <time>2010-12-18T07:18:36Z</time>
      </trkpt>
      <trkpt lat="43.80246" lon="7.24544">
        <ele>812</ele>
        <time>2010-12-18T07:18:43Z</time>
      </trkpt>
      <trkpt lat="43.80255" lon="7.2454">
        <ele>813</ele>
        <time>2010-12-18T07:18:50Z</time>
      </trkpt>
      <trkpt lat="43.80264" lon="7.24538">
        <ele>813</ele>
        <time>2010-12-18T07:18:57Z</time>
      </trkpt>
      <trkpt lat="43.80273" lon="7.24535">
        <ele>815</ele>
        <time>2010-12-18T07:19:03Z</time>
      </trkpt>
      <trkpt lat="43.80282" lon="7.24532">
        <ele>816</ele>
        <time>2010-12-18T07:19:09Z</time>
      </trkpt>
      <trkpt lat="43.80291" lon="7.24529">
        <ele>818</ele>
        <time>2010-12-18T07:19:16Z</time>
      </trkpt>
      <trkpt lat="43.80297" lon="7.24527">
        <ele>819</ele>
        <time>2010-12-18T07:19:21Z</time>
      </trkpt>
      <trkpt lat="43.80306" lon="7.24524">
        <ele>821</ele>
        <time>2010-12-18T07:19:28Z</time>
      </trkpt>
      <trkpt lat="43.80316" lon="7.2452">
        <ele>822</ele>
        <time>2010-12-18T07:19:35Z</time>
      </trkpt>
      <trkpt lat="43.80325" lon="7.24518">
        <ele>823</ele>
        <time>2010-12-18T07:19:41Z</time>
      </trkpt>
      <trkpt lat="43.80334" lon="7.24517">
        <ele>825</ele>
        <time>2010-12-18T07:19:48Z</time>
      </trkpt>
      <trkpt lat="43.80339" lon="7.24517">
        <ele>825</ele>
        <time>2010-12-18T07:19:51Z</time>
      </trkpt>
      <trkpt lat="43.80349" lon="7.24516">
        <ele>826</ele>
        <time>2010-12-18T07:19:57Z</time>
      </trkpt>
      <trkpt lat="43.8036" lon="7.24515">
        <ele>827</ele>
        <time>2010-12-18T07:20:01Z</time>
      </trkpt>
      <trkpt lat="43.8037" lon="7.24515">
        <ele>827</ele>
        <time>2010-12-18T07:20:05Z</time>
      </trkpt>
      <trkpt lat="43.8038" lon="7.24513">
        <ele>828</ele>
        <time>2010-12-18T07:20:09Z</time>
      </trkpt>
      <trkpt lat="43.80391" lon="7.24513">
        <ele>829</ele>
        <time>2010-12-18T07:20:12Z</time>
      </trkpt>
      <trkpt lat="43.80402" lon="7.24512">
        <ele>829</ele>
        <time>2010-12-18T07:20:16Z</time>
      </trkpt>
      <trkpt lat="43.80411" lon="7.2451">
        <ele>830</ele>
        <time>2010-12-18T07:20:20Z</time>
      </trkpt>
      <trkpt lat="43.80421" lon="7.24509">
        <ele>831</ele>
        <time>2010-12-18T07:20:24Z</time>
      </trkpt>
      <trkpt lat="43.80431" lon="7.24507">
        <ele>831</ele>
        <time>2010-12-18T07:20:28Z</time>
      </trkpt>
      <trkpt lat="43.80436" lon="7.24506">
        <ele>832</ele>
        <time>2010-12-18T07:20:30Z</time>
      </trkpt>
      <trkpt lat="43.80446" lon="7.24505">
        <ele>832</ele>
        <time>2010-12-18T07:20:34Z</time>
      </trkpt>
      <trkpt lat="43.80455" lon="7.24504">
        <ele>832</ele>
        <time>2010-12-18T07:20:38Z</time>
      </trkpt>
      <trkpt lat="43.80466" lon="7.24503">
        <ele>833</ele>
        <time>2010-12-18T07:20:43Z</time>
      </trkpt>
      <trkpt lat="43.80475" lon="7.245">
        <ele>835</ele>
        <time>2010-12-18T07:20:48Z</time>
      </trkpt>
      <trkpt lat="43.80486" lon="7.245">
        <ele>836</ele>
        <time>2010-12-18T07:20:53Z</time>
      </trkpt>
      <trkpt lat="43.80495" lon="7.24499">
        <ele>837</ele>
        <time>2010-12-18T07:20:57Z</time>
      </trkpt>
      <trkpt lat="43.80505" lon="7.24498">
        <ele>838</ele>
        <time>2010-12-18T07:21:00Z</time>
      </trkpt>
      <trkpt lat="43.80514" lon="7.24498">
        <ele>838</ele>
        <time>2010-12-18T07:21:03Z</time>
      </trkpt>
      <trkpt lat="43.80525" lon="7.24499">
        <ele>838</ele>
        <time>2010-12-18T07:21:07Z</time>
      </trkpt>
      <trkpt lat="43.80535" lon="7.24502">
        <ele>838</ele>
        <time>2010-12-18T07:21:10Z</time>
      </trkpt>
      <trkpt lat="43.80545" lon="7.24504">
        <ele>838</ele>
        <time>2010-12-18T07:21:13Z</time>
      </trkpt>
      <trkpt lat="43.80556" lon="7.24504">
        <ele>839</ele>
        <time>2010-12-18T07:21:16Z</time>
      </trkpt>
      <trkpt lat="43.80569" lon="7.24504">
        <ele>839</ele>
        <time>2010-12-18T07:21:18Z</time>
      </trkpt>
      <trkpt lat="43.8058" lon="7.24502">
        <ele>839</ele>
        <time>2010-12-18T07:21:20Z</time>
      </trkpt>
      <trkpt lat="43.8059" lon="7.245">
        <ele>839</ele>
        <time>2010-12-18T07:21:23Z</time>
      </trkpt>
      <trkpt lat="43.806" lon="7.24497">
        <ele>839</ele>
        <time>2010-12-18T07:21:25Z</time>
      </trkpt>
      <trkpt lat="43.80611" lon="7.24494">
        <ele>839</ele>
        <time>2010-12-18T07:21:27Z</time>
      </trkpt>
      <trkpt lat="43.80618" lon="7.24494">
        <ele>839</ele>
        <time>2010-12-18T07:21:29Z</time>
      </trkpt>
      <trkpt lat="43.80628" lon="7.24494">
        <ele>840</ele>
        <time>2010-12-18T07:21:31Z</time>
      </trkpt>
      <trkpt lat="43.80639" lon="7.24493">
        <ele>839</ele>
        <time>2010-12-18T07:21:33Z</time>
      </trkpt>
      <trkpt lat="43.8065" lon="7.24493">
        <ele>840</ele>
        <time>2010-12-18T07:21:35Z</time>
      </trkpt>
      <trkpt lat="43.8066" lon="7.24492">
        <ele>840</ele>
        <time>2010-12-18T07:21:38Z</time>
      </trkpt>
      <trkpt lat="43.8067" lon="7.2449">
        <ele>840</ele>
        <time>2010-12-18T07:21:40Z</time>
      </trkpt>
      <trkpt lat="43.80676" lon="7.24489">
        <ele>840</ele>
        <time>2010-12-18T07:21:42Z</time>
      </trkpt>
      <trkpt lat="43.80686" lon="7.24487">
        <ele>840</ele>
        <time>2010-12-18T07:21:44Z</time>
      </trkpt>
      <trkpt lat="43.80689" lon="7.24487">
        <ele>840</ele>
        <time>2010-12-18T07:21:45Z</time>
      </trkpt>
      <trkpt lat="43.807" lon="7.24486">
        <ele>840</ele>
        <time>2010-12-18T07:21:48Z</time>
      </trkpt>
      <trkpt lat="43.80711" lon="7.24484">
        <ele>841</ele>
        <time>2010-12-18T07:21:51Z</time>
      </trkpt>
      <trkpt lat="43.80723" lon="7.24481">
        <ele>841</ele>
        <time>2010-12-18T07:21:54Z</time>
      </trkpt>
      <trkpt lat="43.80733" lon="7.24479">
        <ele>840</ele>
        <time>2010-12-18T07:21:57Z</time>
      </trkpt>
      <trkpt lat="43.80743" lon="7.24479">
        <ele>841</ele>
        <time>2010-12-18T07:22:00Z</time>
      </trkpt>
      <trkpt lat="43.80754" lon="7.24479">
        <ele>841</ele>
        <time>2010-12-18T07:22:03Z</time>
      </trkpt>
      <trkpt lat="43.80765" lon="7.2448">
        <ele>841</ele>
        <time>2010-12-18T07:22:06Z</time>
      </trkpt>
      <trkpt lat="43.80776" lon="7.24482">
        <ele>841</ele>
        <time>2010-12-18T07:22:09Z</time>
      </trkpt>
      <trkpt lat="43.80785" lon="7.24485">
        <ele>841</ele>
        <time>2010-12-18T07:22:11Z</time>
      </trkpt>
      <trkpt lat="43.80795" lon="7.2449">
        <ele>841</ele>
        <time>2010-12-18T07:22:14Z</time>
      </trkpt>
      <trkpt lat="43.80803" lon="7.24501">
        <ele>841</ele>
        <time>2010-12-18T07:22:17Z</time>
      </trkpt>
      <trkpt lat="43.80807" lon="7.24513">
        <ele>841</ele>
        <time>2010-12-18T07:22:20Z</time>
      </trkpt>
      <trkpt lat="43.80811" lon="7.24528">
        <ele>842</ele>
        <time>2010-12-18T07:22:23Z</time>
      </trkpt>
      <trkpt lat="43.80815" lon="7.24541">
        <ele>843</ele>
        <time>2010-12-18T07:22:26Z</time>
      </trkpt>
      <trkpt lat="43.80818" lon="7.24551">
        <ele>844</ele>
        <time>2010-12-18T07:22:28Z</time>
      </trkpt>
      <trkpt lat="43.80828" lon="7.24554">
        <ele>845</ele>
        <time>2010-12-18T07:22:32Z</time>
      </trkpt>
      <trkpt lat="43.80837" lon="7.24549">
        <ele>846</ele>
        <time>2010-12-18T07:22:35Z</time>
      </trkpt>
      <trkpt lat="43.80846" lon="7.24544">
        <ele>847</ele>
        <time>2010-12-18T07:22:38Z</time>
      </trkpt>
      <trkpt lat="43.80857" lon="7.24538">
        <ele>847</ele>
        <time>2010-12-18T07:22:41Z</time>
      </trkpt>
      <trkpt lat="43.80866" lon="7.24533">
        <ele>846</ele>
        <time>2010-12-18T07:22:44Z</time>
      </trkpt>
      <trkpt lat="43.80876" lon="7.24526">
        <ele>847</ele>
        <time>2010-12-18T07:22:47Z</time>
      </trkpt>
      <trkpt lat="43.80885" lon="7.2452">
        <ele>846</ele>
        <time>2010-12-18T07:22:49Z</time>
      </trkpt>
      <trkpt lat="43.80894" lon="7.24518">
        <ele>846</ele>
        <time>2010-12-18T07:22:52Z</time>
      </trkpt>
      <trkpt lat="43.80904" lon="7.24517">
        <ele>846</ele>
        <time>2010-12-18T07:22:54Z</time>
      </trkpt>
      <trkpt lat="43.80914" lon="7.24516">
        <ele>845</ele>
        <time>2010-12-18T07:22:56Z</time>
      </trkpt>
      <trkpt lat="43.80924" lon="7.24516">
        <ele>844</ele>
        <time>2010-12-18T07:22:59Z</time>
      </trkpt>
      <trkpt lat="43.8093" lon="7.24505">
        <ele>844</ele>
        <time>2010-12-18T07:23:05Z</time>
      </trkpt>
      <trkpt lat="43.80932" lon="7.24501">
        <ele>844</ele>
        <time>2010-12-18T07:23:24Z</time>
      </trkpt>
      <trkpt lat="43.8094" lon="7.24485">
        <ele>840</ele>
        <time>2010-12-18T07:24:50Z</time>
      </trkpt>
      <trkpt lat="43.8094" lon="7.24485">
        <ele>840</ele>
        <time>2010-12-18T07:24:54Z</time>
      </trkpt>
      <trkpt lat="43.80937" lon="7.24497">
        <ele>833</ele>
        <time>2010-12-18T07:26:58Z</time>
      </trkpt>
      <trkpt lat="43.80931" lon="7.24507">
        <ele>833</ele>
        <time>2010-12-18T07:28:44Z</time>
      </trkpt>
      <trkpt lat="43.80931" lon="7.24507">
        <ele>834</ele>
        <time>2010-12-18T07:28:49Z</time>
      </trkpt>
      <trkpt lat="43.80936" lon="7.24494">
        <ele>835</ele>
        <time>2010-12-18T07:33:48Z</time>
      </trkpt>
      <trkpt lat="43.80939" lon="7.24482">
        <ele>834</ele>
        <time>2010-12-18T07:34:20Z</time>
      </trkpt>
      <trkpt lat="43.80941" lon="7.24477">
        <ele>834</ele>
        <time>2010-12-18T07:34:23Z</time>
      </trkpt>
      <trkpt lat="43.80947" lon="7.24467">
        <ele>833</ele>
        <time>2010-12-18T07:34:27Z</time>
      </trkpt>
      <trkpt lat="43.80953" lon="7.24455">
        <ele>832</ele>
        <time>2010-12-18T07:34:32Z</time>
      </trkpt>
      <trkpt lat="43.80958" lon="7.24443">
        <ele>831</ele>
        <time>2010-12-18T07:34:37Z</time>
      </trkpt>
      <trkpt lat="43.80961" lon="7.24429">
        <ele>830</ele>
        <time>2010-12-18T07:34:41Z</time>
      </trkpt>
      <trkpt lat="43.80965" lon="7.24417">
        <ele>829</ele>
        <time>2010-12-18T07:34:44Z</time>
      </trkpt>
      <trkpt lat="43.80969" lon="7.24405">
        <ele>828</ele>
        <time>2010-12-18T07:34:47Z</time>
      </trkpt>
      <trkpt lat="43.80972" lon="7.24393">
        <ele>826</ele>
        <time>2010-12-18T07:34:50Z</time>
      </trkpt>
      <trkpt lat="43.80976" lon="7.24379">
        <ele>825</ele>
        <time>2010-12-18T07:34:54Z</time>
      </trkpt>
      <trkpt lat="43.8098" lon="7.24368">
        <ele>824</ele>
        <time>2010-12-18T07:34:58Z</time>
      </trkpt>
      <trkpt lat="43.80985" lon="7.24355">
        <ele>823</ele>
        <time>2010-12-18T07:35:03Z</time>
      </trkpt>
      <trkpt lat="43.8099" lon="7.24345">
        <ele>821</ele>
        <time>2010-12-18T07:35:06Z</time>
      </trkpt>
      <trkpt lat="43.80997" lon="7.24336">
        <ele>819</ele>
        <time>2010-12-18T07:35:09Z</time>
      </trkpt>
      <trkpt lat="43.81003" lon="7.24324">
        <ele>818</ele>
        <time>2010-12-18T07:35:13Z</time>
      </trkpt>
      <trkpt lat="43.8101" lon="7.24314">
        <ele>817</ele>
        <time>2010-12-18T07:35:16Z</time>
      </trkpt>
      <trkpt lat="43.81016" lon="7.24304">
        <ele>815</ele>
        <time>2010-12-18T07:35:19Z</time>
      </trkpt>
      <trkpt lat="43.81023" lon="7.24292">
        <ele>814</ele>
        <time>2010-12-18T07:35:22Z</time>
      </trkpt>
      <trkpt lat="43.8103" lon="7.24279">
        <ele>813</ele>
        <time>2010-12-18T07:35:25Z</time>
      </trkpt>
      <trkpt lat="43.81035" lon="7.24269">
        <ele>811</ele>
        <time>2010-12-18T07:35:27Z</time>
      </trkpt>
      <trkpt lat="43.81041" lon="7.24258">
        <ele>810</ele>
        <time>2010-12-18T07:35:30Z</time>
      </trkpt>
      <trkpt lat="43.81048" lon="7.24249">
        <ele>809</ele>
        <time>2010-12-18T07:35:32Z</time>
      </trkpt>
      <trkpt lat="43.81055" lon="7.24239">
        <ele>807</ele>
        <time>2010-12-18T07:35:35Z</time>
      </trkpt>
      <trkpt lat="43.81062" lon="7.24229">
        <ele>806</ele>
        <time>2010-12-18T07:35:38Z</time>
      </trkpt>
      <trkpt lat="43.81069" lon="7.24218">
        <ele>804</ele>
        <time>2010-12-18T07:35:41Z</time>
      </trkpt>
      <trkpt lat="43.81073" lon="7.24212">
        <ele>803</ele>
        <time>2010-12-18T07:35:43Z</time>
      </trkpt>
      <trkpt lat="43.81079" lon="7.24202">
        <ele>801</ele>
        <time>2010-12-18T07:35:46Z</time>
      </trkpt>
      <trkpt lat="43.81087" lon="7.24191">
        <ele>799</ele>
        <time>2010-12-18T07:35:49Z</time>
      </trkpt>
      <trkpt lat="43.81094" lon="7.24181">
        <ele>797</ele>
        <time>2010-12-18T07:35:52Z</time>
      </trkpt>
      <trkpt lat="43.81101" lon="7.24172">
        <ele>795</ele>
        <time>2010-12-18T07:35:54Z</time>
      </trkpt>
      <trkpt lat="43.81109" lon="7.24165">
        <ele>793</ele>
        <time>2010-12-18T07:35:56Z</time>
      </trkpt>
      <trkpt lat="43.81117" lon="7.24156">
        <ele>792</ele>
        <time>2010-12-18T07:35:59Z</time>
      </trkpt>
      <trkpt lat="43.8112" lon="7.24151">
        <ele>790</ele>
        <time>2010-12-18T07:36:01Z</time>
      </trkpt>
      <trkpt lat="43.81129" lon="7.2414">
        <ele>788</ele>
        <time>2010-12-18T07:36:04Z</time>
      </trkpt>
      <trkpt lat="43.81136" lon="7.24128">
        <ele>786</ele>
        <time>2010-12-18T07:36:07Z</time>
      </trkpt>
      <trkpt lat="43.8114" lon="7.24116">
        <ele>784</ele>
        <time>2010-12-18T07:36:10Z</time>
      </trkpt>
      <trkpt lat="43.81141" lon="7.24101">
        <ele>781</ele>
        <time>2010-12-18T07:36:13Z</time>
      </trkpt>
      <trkpt lat="43.81148" lon="7.24093">
        <ele>778</ele>
        <time>2010-12-18T07:36:18Z</time>
      </trkpt>
      <trkpt lat="43.81159" lon="7.24097">
        <ele>774</ele>
        <time>2010-12-18T07:36:21Z</time>
      </trkpt>
      <trkpt lat="43.81168" lon="7.24107">
        <ele>771</ele>
        <time>2010-12-18T07:36:25Z</time>
      </trkpt>
      <trkpt lat="43.81176" lon="7.2411">
        <ele>765</ele>
        <time>2010-12-18T07:36:33Z</time>
      </trkpt>
      <trkpt lat="43.81185" lon="7.24118">
        <ele>757</ele>
        <time>2010-12-18T07:36:53Z</time>
      </trkpt>
      <trkpt lat="43.81193" lon="7.24127">
        <ele>754</ele>
        <time>2010-12-18T07:36:58Z</time>
      </trkpt>
      <trkpt lat="43.81204" lon="7.24127">
        <ele>752</ele>
        <time>2010-12-18T07:37:03Z</time>
      </trkpt>
      <trkpt lat="43.81214" lon="7.24129">
        <ele>750</ele>
        <time>2010-12-18T07:37:09Z</time>
      </trkpt>
      <trkpt lat="43.81223" lon="7.24132">
        <ele>748</ele>
        <time>2010-12-18T07:37:12Z</time>
      </trkpt>
      <trkpt lat="43.81234" lon="7.2413">
        <ele>745</ele>
        <time>2010-12-18T07:37:17Z</time>
      </trkpt>
      <trkpt lat="43.81243" lon="7.24129">
        <ele>743</ele>
        <time>2010-12-18T07:37:21Z</time>
      </trkpt>
      <trkpt lat="43.81253" lon="7.2413">
        <ele>740</ele>
        <time>2010-12-18T07:37:25Z</time>
      </trkpt>
      <trkpt lat="43.81263" lon="7.24132">
        <ele>736</ele>
        <time>2010-12-18T07:37:30Z</time>
      </trkpt>
      <trkpt lat="43.81272" lon="7.24135">
        <ele>732</ele>
        <time>2010-12-18T07:37:35Z</time>
      </trkpt>
      <trkpt lat="43.81282" lon="7.24141">
        <ele>729</ele>
        <time>2010-12-18T07:37:39Z</time>
      </trkpt>
      <trkpt lat="43.81292" lon="7.24142">
        <ele>726</ele>
        <time>2010-12-18T07:37:43Z</time>
      </trkpt>
      <trkpt lat="43.81301" lon="7.24147">
        <ele>724</ele>
        <time>2010-12-18T07:37:46Z</time>
      </trkpt>
      <trkpt lat="43.8131" lon="7.24153">
        <ele>722</ele>
        <time>2010-12-18T07:37:49Z</time>
      </trkpt>
      <trkpt lat="43.81319" lon="7.24157">
        <ele>719</ele>
        <time>2010-12-18T07:37:51Z</time>
      </trkpt>
      <trkpt lat="43.81328" lon="7.24161">
        <ele>717</ele>
        <time>2010-12-18T07:37:54Z</time>
      </trkpt>
      <trkpt lat="43.81337" lon="7.2416">
        <ele>714</ele>
        <time>2010-12-18T07:37:58Z</time>
      </trkpt>
      <trkpt lat="43.81346" lon="7.24159">
        <ele>710</ele>
        <time>2010-12-18T07:38:03Z</time>
      </trkpt>
      <trkpt lat="43.81354" lon="7.24167">
        <ele>704</ele>
        <time>2010-12-18T07:38:08Z</time>
      </trkpt>
      <trkpt lat="43.81363" lon="7.24172">
        <ele>700</ele>
        <time>2010-12-18T07:38:13Z</time>
      </trkpt>
      <trkpt lat="43.8137" lon="7.24183">
        <ele>696</ele>
        <time>2010-12-18T07:38:18Z</time>
      </trkpt>
      <trkpt lat="43.81377" lon="7.2419">
        <ele>692</ele>
        <time>2010-12-18T07:38:22Z</time>
      </trkpt>
      <trkpt lat="43.81381" lon="7.24202">
        <ele>688</ele>
        <time>2010-12-18T07:38:27Z</time>
      </trkpt>
      <trkpt lat="43.81386" lon="7.24214">
        <ele>683</ele>
        <time>2010-12-18T07:38:30Z</time>
      </trkpt>
      <trkpt lat="43.81388" lon="7.24218">
        <ele>681</ele>
        <time>2010-12-18T07:38:32Z</time>
      </trkpt>
      <trkpt lat="43.81395" lon="7.24228">
        <ele>675</ele>
        <time>2010-12-18T07:38:37Z</time>
      </trkpt>
      <trkpt lat="43.81398" lon="7.24238">
        <ele>671</ele>
        <time>2010-12-18T07:38:41Z</time>
      </trkpt>
      <trkpt lat="43.81407" lon="7.24245">
        <ele>664</ele>
        <time>2010-12-18T07:38:48Z</time>
      </trkpt>
      <trkpt lat="43.81415" lon="7.24251">
        <ele>658</ele>
        <time>2010-12-18T07:38:56Z</time>
      </trkpt>
      <trkpt lat="43.81423" lon="7.24259">
        <ele>653</ele>
        <time>2010-12-18T07:39:02Z</time>
      </trkpt>
      <trkpt lat="43.81425" lon="7.24263">
        <ele>651</ele>
        <time>2010-12-18T07:39:05Z</time>
      </trkpt>
      <trkpt lat="43.81424" lon="7.24275">
        <ele>644</ele>
        <time>2010-12-18T07:39:21Z</time>
      </trkpt>
      <trkpt lat="43.81419" lon="7.24283">
        <ele>644</ele>
        <time>2010-12-18T07:39:34Z</time>
      </trkpt>
      <trkpt lat="43.81413" lon="7.24293">
        <ele>640</ele>
        <time>2010-12-18T07:39:59Z</time>
      </trkpt>
      <trkpt lat="43.81414" lon="7.24305">
        <ele>636</ele>
        <time>2010-12-18T07:40:08Z</time>
      </trkpt>
      <trkpt lat="43.81423" lon="7.2431">
        <ele>635</ele>
        <time>2010-12-18T07:40:12Z</time>
      </trkpt>
      <trkpt lat="43.81432" lon="7.24311">
        <ele>632</ele>
        <time>2010-12-18T07:40:16Z</time>
      </trkpt>
      <trkpt lat="43.81441" lon="7.24308">
        <ele>629</ele>
        <time>2010-12-18T07:40:20Z</time>
      </trkpt>
      <trkpt lat="43.8145" lon="7.24307">
        <ele>628</ele>
        <time>2010-12-18T07:40:23Z</time>
      </trkpt>
      <trkpt lat="43.81459" lon="7.24312">
        <ele>626</ele>
        <time>2010-12-18T07:40:28Z</time>
      </trkpt>
      <trkpt lat="43.81469" lon="7.24312">
        <ele>624</ele>
        <time>2010-12-18T07:40:33Z</time>
      </trkpt>
      <trkpt lat="43.81477" lon="7.24304">
        <ele>622</ele>
        <time>2010-12-18T07:40:38Z</time>
      </trkpt>
      <trkpt lat="43.81484" lon="7.24312">
        <ele>617</ele>
        <time>2010-12-18T07:40:59Z</time>
      </trkpt>
      <trkpt lat="43.81476" lon="7.24321">
        <ele>616</ele>
        <time>2010-12-18T07:41:08Z</time>
      </trkpt>
      <trkpt lat="43.81467" lon="7.24323">
        <ele>616</ele>
        <time>2010-12-18T07:41:11Z</time>
      </trkpt>
      <trkpt lat="43.81458" lon="7.24326">
        <ele>615</ele>
        <time>2010-12-18T07:41:14Z</time>
      </trkpt>
      <trkpt lat="43.81447" lon="7.24329">
        <ele>615</ele>
        <time>2010-12-18T07:41:16Z</time>
      </trkpt>
      <trkpt lat="43.81443" lon="7.24331">
        <ele>614</ele>
        <time>2010-12-18T07:41:17Z</time>
      </trkpt>
      <trkpt lat="43.81432" lon="7.24335">
        <ele>614</ele>
        <time>2010-12-18T07:41:19Z</time>
      </trkpt>
      <trkpt lat="43.81422" lon="7.2434">
        <ele>614</ele>
        <time>2010-12-18T07:41:21Z</time>
      </trkpt>
      <trkpt lat="43.81412" lon="7.24346">
        <ele>614</ele>
        <time>2010-12-18T07:41:24Z</time>
      </trkpt>
      <trkpt lat="43.81404" lon="7.24355">
        <ele>614</ele>
        <time>2010-12-18T07:41:26Z</time>
      </trkpt>
      <trkpt lat="43.81397" lon="7.24365">
        <ele>613</ele>
        <time>2010-12-18T07:41:28Z</time>
      </trkpt>
      <trkpt lat="43.81391" lon="7.24374">
        <ele>613</ele>
        <time>2010-12-18T07:41:31Z</time>
      </trkpt>
      <trkpt lat="43.81383" lon="7.24384">
        <ele>613</ele>
        <time>2010-12-18T07:41:33Z</time>
      </trkpt>
      <trkpt lat="43.81374" lon="7.24395">
        <ele>613</ele>
        <time>2010-12-18T07:41:35Z</time>
      </trkpt>
      <trkpt lat="43.81363" lon="7.24406">
        <ele>613</ele>
        <time>2010-12-18T07:41:38Z</time>
      </trkpt>
      <trkpt lat="43.81355" lon="7.24413">
        <ele>613</ele>
        <time>2010-12-18T07:41:39Z</time>
      </trkpt>
      <trkpt lat="43.81348" lon="7.24421">
        <ele>612</ele>
        <time>2010-12-18T07:41:41Z</time>
      </trkpt>
      <trkpt lat="43.8134" lon="7.24431">
        <ele>612</ele>
        <time>2010-12-18T07:41:42Z</time>
      </trkpt>
      <trkpt lat="43.81331" lon="7.24446">
        <ele>612</ele>
        <time>2010-12-18T07:41:44Z</time>
      </trkpt>
      <trkpt lat="43.81325" lon="7.24458">
        <ele>612</ele>
        <time>2010-12-18T07:41:46Z</time>
      </trkpt>
      <trkpt lat="43.81318" lon="7.24469">
        <ele>612</ele>
        <time>2010-12-18T07:41:48Z</time>
      </trkpt>
      <trkpt lat="43.81311" lon="7.2448">
        <ele>611</ele>
        <time>2010-12-18T07:41:49Z</time>
      </trkpt>
      <trkpt lat="43.81304" lon="7.24491">
        <ele>611</ele>
        <time>2010-12-18T07:41:51Z</time>
      </trkpt>
      <trkpt lat="43.81296" lon="7.24501">
        <ele>611</ele>
        <time>2010-12-18T07:41:53Z</time>
      </trkpt>
      <trkpt lat="43.81287" lon="7.24501">
        <ele>611</ele>
        <time>2010-12-18T07:41:55Z</time>
      </trkpt>
      <trkpt lat="43.81278" lon="7.24497">
        <ele>610</ele>
        <time>2010-12-18T07:41:58Z</time>
      </trkpt>
      <trkpt lat="43.81267" lon="7.24503">
        <ele>609</ele>
        <time>2010-12-18T07:42:01Z</time>
      </trkpt>
      <trkpt lat="43.81264" lon="7.24518">
        <ele>608</ele>
        <time>2010-12-18T07:42:04Z</time>
      </trkpt>
      <trkpt lat="43.81264" lon="7.24531">
        <ele>607</ele>
        <time>2010-12-18T07:42:06Z</time>
      </trkpt>
      <trkpt lat="43.81268" lon="7.24547">
        <ele>607</ele>
        <time>2010-12-18T07:42:09Z</time>
      </trkpt>
      <trkpt lat="43.81273" lon="7.24558">
        <ele>607</ele>
        <time>2010-12-18T07:42:11Z</time>
      </trkpt>
      <trkpt lat="43.81278" lon="7.24571">
        <ele>607</ele>
        <time>2010-12-18T07:42:14Z</time>
      </trkpt>
      <trkpt lat="43.8128" lon="7.24587">
        <ele>607</ele>
        <time>2010-12-18T07:42:16Z</time>
      </trkpt>
      <trkpt lat="43.81281" lon="7.24603">
        <ele>606</ele>
        <time>2010-12-18T07:42:18Z</time>
      </trkpt>
      <trkpt lat="43.81281" lon="7.24619">
        <ele>606</ele>
        <time>2010-12-18T07:42:21Z</time>
      </trkpt>
      <trkpt lat="43.8128" lon="7.24635">
        <ele>605</ele>
        <time>2010-12-18T07:42:23Z</time>
      </trkpt>
      <trkpt lat="43.81278" lon="7.2465">
        <ele>605</ele>
        <time>2010-12-18T07:42:25Z</time>
      </trkpt>
      <trkpt lat="43.81272" lon="7.24664">
        <ele>603</ele>
        <time>2010-12-18T07:42:28Z</time>
      </trkpt>
      <trkpt lat="43.81264" lon="7.24673">
        <ele>602</ele>
        <time>2010-12-18T07:42:30Z</time>
      </trkpt>
      <trkpt lat="43.81254" lon="7.24679">
        <ele>602</ele>
        <time>2010-12-18T07:42:32Z</time>
      </trkpt>
      <trkpt lat="43.81244" lon="7.24684">
        <ele>601</ele>
        <time>2010-12-18T07:42:35Z</time>
      </trkpt>
      <trkpt lat="43.81235" lon="7.24687">
        <ele>600</ele>
        <time>2010-12-18T07:42:37Z</time>
      </trkpt>
      <trkpt lat="43.81223" lon="7.2469">
        <ele>599</ele>
        <time>2010-12-18T07:42:40Z</time>
      </trkpt>
      <trkpt lat="43.81213" lon="7.24692">
        <ele>596</ele>
        <time>2010-12-18T07:42:43Z</time>
      </trkpt>
      <trkpt lat="43.81203" lon="7.24698">
        <ele>596</ele>
        <time>2010-12-18T07:42:46Z</time>
      </trkpt>
      <trkpt lat="43.81196" lon="7.24706">
        <ele>596</ele>
        <time>2010-12-18T07:42:49Z</time>
      </trkpt>
      <trkpt lat="43.81193" lon="7.24718">
        <ele>595</ele>
        <time>2010-12-18T07:42:51Z</time>
      </trkpt>
      <trkpt lat="43.81198" lon="7.2473">
        <ele>595</ele>
        <time>2010-12-18T07:42:54Z</time>
      </trkpt>
      <trkpt lat="43.81205" lon="7.2474">
        <ele>595</ele>
        <time>2010-12-18T07:42:57Z</time>
      </trkpt>
      <trkpt lat="43.81208" lon="7.24748">
        <ele>596</ele>
        <time>2010-12-18T07:42:58Z</time>
      </trkpt>
      <trkpt lat="43.81213" lon="7.24762">
        <ele>596</ele>
        <time>2010-12-18T07:43:01Z</time>
      </trkpt>
      <trkpt lat="43.81221" lon="7.24775">
        <ele>596</ele>
        <time>2010-12-18T07:43:03Z</time>
      </trkpt>
      <trkpt lat="43.81228" lon="7.24786">
        <ele>595</ele>
        <time>2010-12-18T07:43:05Z</time>
      </trkpt>
      <trkpt lat="43.8123" lon="7.248">
        <ele>596</ele>
        <time>2010-12-18T07:43:08Z</time>
      </trkpt>
      <trkpt lat="43.81226" lon="7.24813">
        <ele>596</ele>
        <time>2010-12-18T07:43:13Z</time>
      </trkpt>
      <trkpt lat="43.8122" lon="7.24822">
        <ele>596</ele>
        <time>2010-12-18T07:43:27Z</time>
      </trkpt>
      <trkpt lat="43.81214" lon="7.24834">
        <ele>597</ele>
        <time>2010-12-18T07:43:31Z</time>
      </trkpt>
      <trkpt lat="43.81212" lon="7.24848">
        <ele>597</ele>
        <time>2010-12-18T07:43:35Z</time>
      </trkpt>
      <trkpt lat="43.81213" lon="7.24861">
        <ele>597</ele>
        <time>2010-12-18T07:43:39Z</time>
      </trkpt>
      <trkpt lat="43.81213" lon="7.24877">
        <ele>597</ele>
        <time>2010-12-18T07:43:43Z</time>
      </trkpt>
      <trkpt lat="43.81213" lon="7.24892">
        <ele>597</ele>
        <time>2010-12-18T07:43:46Z</time>
      </trkpt>
      <trkpt lat="43.81216" lon="7.24899">
        <ele>598</ele>
        <time>2010-12-18T07:43:49Z</time>
      </trkpt>
      <trkpt lat="43.81224" lon="7.2491">
        <ele>598</ele>
        <time>2010-12-18T07:43:53Z</time>
      </trkpt>
      <trkpt lat="43.81231" lon="7.24919">
        <ele>599</ele>
        <time>2010-12-18T07:43:57Z</time>
      </trkpt>
      <trkpt lat="43.81236" lon="7.2493">
        <ele>599</ele>
        <time>2010-12-18T07:44:01Z</time>
      </trkpt>
      <trkpt lat="43.81237" lon="7.24943">
        <ele>600</ele>
        <time>2010-12-18T07:44:05Z</time>
      </trkpt>
      <trkpt lat="43.81237" lon="7.24956">
        <ele>600</ele>
        <time>2010-12-18T07:44:09Z</time>
      </trkpt>
      <trkpt lat="43.81238" lon="7.24964">
        <ele>601</ele>
        <time>2010-12-18T07:44:12Z</time>
      </trkpt>
      <trkpt lat="43.81241" lon="7.24976">
        <ele>602</ele>
        <time>2010-12-18T07:44:18Z</time>
      </trkpt>
      <trkpt lat="43.81248" lon="7.24986">
        <ele>604</ele>
        <time>2010-12-18T07:44:24Z</time>
      </trkpt>
      <trkpt lat="43.81257" lon="7.24994">
        <ele>606</ele>
        <time>2010-12-18T07:44:30Z</time>
      </trkpt>
      <trkpt lat="43.81265" lon="7.25003">
        <ele>606</ele>
        <time>2010-12-18T07:44:36Z</time>
      </trkpt>
      <trkpt lat="43.81269" lon="7.25014">
        <ele>607</ele>
        <time>2010-12-18T07:44:42Z</time>
      </trkpt>
      <trkpt lat="43.81268" lon="7.25026">
        <ele>608</ele>
        <time>2010-12-18T07:44:48Z</time>
      </trkpt>
      <trkpt lat="43.81266" lon="7.25039">
        <ele>609</ele>
        <time>2010-12-18T07:44:54Z</time>
      </trkpt>
      <trkpt lat="43.81264" lon="7.25053">
        <ele>609</ele>
        <time>2010-12-18T07:45:01Z</time>
      </trkpt>
      <trkpt lat="43.8126" lon="7.25064">
        <ele>609</ele>
        <time>2010-12-18T07:45:28Z</time>
      </trkpt>
      <trkpt lat="43.81259" lon="7.25068">
        <ele>609</ele>
        <time>2010-12-18T07:45:30Z</time>
      </trkpt>
      <trkpt lat="43.81259" lon="7.25072">
        <ele>610</ele>
        <time>2010-12-18T07:45:31Z</time>
      </trkpt>
      <trkpt lat="43.8126" lon="7.25084">
        <ele>610</ele>
        <time>2010-12-18T07:45:37Z</time>
      </trkpt>
      <trkpt lat="43.81267" lon="7.25094">
        <ele>612</ele>
        <time>2010-12-18T07:45:47Z</time>
      </trkpt>
      <trkpt lat="43.81274" lon="7.25099">
        <ele>612</ele>
        <time>2010-12-18T07:45:52Z</time>
      </trkpt>
      <trkpt lat="43.81284" lon="7.25101">
        <ele>614</ele>
        <time>2010-12-18T07:45:58Z</time>
      </trkpt>
      <trkpt lat="43.81293" lon="7.25102">
        <ele>613</ele>
        <time>2010-12-18T07:46:04Z</time>
      </trkpt>
      <trkpt lat="43.81302" lon="7.25101">
        <ele>616</ele>
        <time>2010-12-18T07:46:14Z</time>
      </trkpt>
      <trkpt lat="43.81306" lon="7.25102">
        <ele>616</ele>
        <time>2010-12-18T07:46:17Z</time>
      </trkpt>
      <trkpt lat="43.81315" lon="7.25106">
        <ele>617</ele>
        <time>2010-12-18T07:46:26Z</time>
      </trkpt>
      <trkpt lat="43.81324" lon="7.25112">
        <ele>617</ele>
        <time>2010-12-18T07:46:32Z</time>
      </trkpt>
      <trkpt lat="43.81331" lon="7.25121">
        <ele>617</ele>
        <time>2010-12-18T07:46:38Z</time>
      </trkpt>
      <trkpt lat="43.81335" lon="7.25134">
        <ele>618</ele>
        <time>2010-12-18T07:46:47Z</time>
      </trkpt>
      <trkpt lat="43.81336" lon="7.25139">
        <ele>618</ele>
        <time>2010-12-18T07:46:49Z</time>
      </trkpt>
      <trkpt lat="43.81337" lon="7.25152">
        <ele>619</ele>
        <time>2010-12-18T07:46:55Z</time>
      </trkpt>
      <trkpt lat="43.81338" lon="7.25165">
        <ele>620</ele>
        <time>2010-12-18T07:47:02Z</time>
      </trkpt>
      <trkpt lat="43.81339" lon="7.25178">
        <ele>622</ele>
        <time>2010-12-18T07:47:10Z</time>
      </trkpt>
      <trkpt lat="43.81345" lon="7.25188">
        <ele>623</ele>
        <time>2010-12-18T07:47:17Z</time>
      </trkpt>
      <trkpt lat="43.81348" lon="7.25191">
        <ele>622</ele>
        <time>2010-12-18T07:47:20Z</time>
      </trkpt>
      <trkpt lat="43.81357" lon="7.25192">
        <ele>624</ele>
        <time>2010-12-18T07:47:27Z</time>
      </trkpt>
      <trkpt lat="43.81366" lon="7.25188">
        <ele>624</ele>
        <time>2010-12-18T07:47:34Z</time>
      </trkpt>
      <trkpt lat="43.81375" lon="7.25183">
        <ele>625</ele>
        <time>2010-12-18T07:47:42Z</time>
      </trkpt>
      <trkpt lat="43.81385" lon="7.25181">
        <ele>626</ele>
        <time>2010-12-18T07:47:48Z</time>
      </trkpt>
      <trkpt lat="43.81394" lon="7.25178">
        <ele>627</ele>
        <time>2010-12-18T07:47:53Z</time>
      </trkpt>
      <trkpt lat="43.81404" lon="7.25176">
        <ele>627</ele>
        <time>2010-12-18T07:48:00Z</time>
      </trkpt>
      <trkpt lat="43.81414" lon="7.25175">
        <ele>629</ele>
        <time>2010-12-18T07:48:06Z</time>
      </trkpt>
      <trkpt lat="43.81424" lon="7.25173">
        <ele>630</ele>
        <time>2010-12-18T07:48:12Z</time>
      </trkpt>
      <trkpt lat="43.81434" lon="7.2517">
        <ele>630</ele>
        <time>2010-12-18T07:48:17Z</time>
      </trkpt>
      <trkpt lat="43.81443" lon="7.25169">
        <ele>631</ele>
        <time>2010-12-18T07:48:23Z</time>
      </trkpt>
      <trkpt lat="43.81453" lon="7.25168">
        <ele>631</ele>
        <time>2010-12-18T07:48:28Z</time>
      </trkpt>
      <trkpt lat="43.81462" lon="7.25167">
        <ele>631</ele>
        <time>2010-12-18T07:48:34Z</time>
      </trkpt>
      <trkpt lat="43.81472" lon="7.25167">
        <ele>632</ele>
        <time>2010-12-18T07:48:40Z</time>
      </trkpt>
      <trkpt lat="43.81482" lon="7.25168">
        <ele>633</ele>
        <time>2010-12-18T07:48:47Z</time>
      </trkpt>
      <trkpt lat="43.81491" lon="7.25172">
        <ele>633</ele>
        <time>2010-12-18T07:48:54Z</time>
      </trkpt>
      <trkpt lat="43.81497" lon="7.25178">
        <ele>633</ele>
        <time>2010-12-18T07:49:02Z</time>
      </trkpt>
      <trkpt lat="43.81505" lon="7.25185">
        <ele>635</ele>
        <time>2010-12-18T07:49:12Z</time>
      </trkpt>
      <trkpt lat="43.8151" lon="7.25191">
        <ele>636</ele>
        <time>2010-12-18T07:49:24Z</time>
      </trkpt>
      <trkpt lat="43.81519" lon="7.25194">
        <ele>638</ele>
        <time>2010-12-18T07:49:34Z</time>
      </trkpt>
      <trkpt lat="43.81528" lon="7.25199">
        <ele>641</ele>
        <time>2010-12-18T07:49:57Z</time>
      </trkpt>
      <trkpt lat="43.81537" lon="7.25203">
        <ele>642</ele>
        <time>2010-12-18T07:50:02Z</time>
      </trkpt>
      <trkpt lat="43.81547" lon="7.25208">
        <ele>642</ele>
        <time>2010-12-18T07:50:07Z</time>
      </trkpt>
      <trkpt lat="43.81555" lon="7.25213">
        <ele>642</ele>
        <time>2010-12-18T07:50:11Z</time>
      </trkpt>
      <trkpt lat="43.81563" lon="7.25219">
        <ele>642</ele>
        <time>2010-12-18T07:50:16Z</time>
      </trkpt>
      <trkpt lat="43.81572" lon="7.25224">
        <ele>643</ele>
        <time>2010-12-18T07:50:20Z</time>
      </trkpt>
      <trkpt lat="43.81581" lon="7.2523">
        <ele>644</ele>
        <time>2010-12-18T07:50:26Z</time>
      </trkpt>
      <trkpt lat="43.81586" lon="7.25233">
        <ele>644</ele>
        <time>2010-12-18T07:50:29Z</time>
      </trkpt>
      <trkpt lat="43.81594" lon="7.2524">
        <ele>645</ele>
        <time>2010-12-18T07:50:35Z</time>
      </trkpt>
      <trkpt lat="43.81595" lon="7.25242">
        <ele>645</ele>
        <time>2010-12-18T07:50:36Z</time>
      </trkpt>
      <trkpt lat="43.81603" lon="7.2525">
        <ele>646</ele>
        <time>2010-12-18T07:50:42Z</time>
      </trkpt>
      <trkpt lat="43.81607" lon="7.25254">
        <ele>646</ele>
        <time>2010-12-18T07:50:45Z</time>
      </trkpt>
      <trkpt lat="43.81616" lon="7.25261">
        <ele>647</ele>
        <time>2010-12-18T07:50:50Z</time>
      </trkpt>
      <trkpt lat="43.81624" lon="7.25269">
        <ele>648</ele>
        <time>2010-12-18T07:50:55Z</time>
      </trkpt>
      <trkpt lat="43.8163" lon="7.25277">
        <ele>648</ele>
        <time>2010-12-18T07:51:00Z</time>
      </trkpt>
      <trkpt lat="43.81635" lon="7.25288">
        <ele>649</ele>
        <time>2010-12-18T07:51:05Z</time>
      </trkpt>
      <trkpt lat="43.81641" lon="7.253">
        <ele>650</ele>
        <time>2010-12-18T07:51:11Z</time>
      </trkpt>
      <trkpt lat="43.81646" lon="7.2531">
        <ele>651</ele>
        <time>2010-12-18T07:51:16Z</time>
      </trkpt>
      <trkpt lat="43.8165" lon="7.25323">
        <ele>652</ele>
        <time>2010-12-18T07:51:22Z</time>
      </trkpt>
      <trkpt lat="43.81655" lon="7.25335">
        <ele>652</ele>
        <time>2010-12-18T07:51:28Z</time>
      </trkpt>
      <trkpt lat="43.81659" lon="7.25348">
        <ele>652</ele>
        <time>2010-12-18T07:51:34Z</time>
      </trkpt>
      <trkpt lat="43.81664" lon="7.2536">
        <ele>652</ele>
        <time>2010-12-18T07:51:39Z</time>
      </trkpt>
      <trkpt lat="43.81668" lon="7.25372">
        <ele>654</ele>
        <time>2010-12-18T07:51:45Z</time>
      </trkpt>
      <trkpt lat="43.81671" lon="7.25379">
        <ele>655</ele>
        <time>2010-12-18T07:51:48Z</time>
      </trkpt>
      <trkpt lat="43.81676" lon="7.25391">
        <ele>655</ele>
        <time>2010-12-18T07:51:53Z</time>
      </trkpt>
      <trkpt lat="43.81681" lon="7.25402">
        <ele>656</ele>
        <time>2010-12-18T07:52:00Z</time>
      </trkpt>
      <trkpt lat="43.81681" lon="7.25403">
        <ele>656</ele>
        <time>2010-12-18T07:52:00Z</time>
      </trkpt>
      <trkpt lat="43.81687" lon="7.25413">
        <ele>657</ele>
        <time>2010-12-18T07:52:06Z</time>
      </trkpt>
      <trkpt lat="43.81692" lon="7.25423">
        <ele>658</ele>
        <time>2010-12-18T07:52:12Z</time>
      </trkpt>
      <trkpt lat="43.81698" lon="7.25434">
        <ele>658</ele>
        <time>2010-12-18T07:52:17Z</time>
      </trkpt>
      <trkpt lat="43.81704" lon="7.25446">
        <ele>659</ele>
        <time>2010-12-18T07:52:23Z</time>
      </trkpt>
      <trkpt lat="43.81709" lon="7.25457">
        <ele>659</ele>
        <time>2010-12-18T07:52:29Z</time>
      </trkpt>
      <trkpt lat="43.8171" lon="7.2546">
        <ele>660</ele>
        <time>2010-12-18T07:52:33Z</time>
      </trkpt>
      <trkpt lat="43.817" lon="7.25457">
        <ele>664</ele>
        <time>2010-12-18T07:54:09Z</time>
      </trkpt>
      <trkpt lat="43.81692" lon="7.25449">
        <ele>664</ele>
        <time>2010-12-18T07:54:16Z</time>
      </trkpt>
      <trkpt lat="43.81684" lon="7.25442">
        <ele>665</ele>
        <time>2010-12-18T07:54:22Z</time>
      </trkpt>
      <trkpt lat="43.81676" lon="7.25435">
        <ele>666</ele>
        <time>2010-12-18T07:54:28Z</time>
      </trkpt>
      <trkpt lat="43.81669" lon="7.25428">
        <ele>666</ele>
        <time>2010-12-18T07:54:36Z</time>
      </trkpt>
      <trkpt lat="43.81661" lon="7.2542">
        <ele>668</ele>
        <time>2010-12-18T07:54:44Z</time>
      </trkpt>
      <trkpt lat="43.81654" lon="7.25412">
        <ele>669</ele>
        <time>2010-12-18T07:54:53Z</time>
      </trkpt>
      <trkpt lat="43.81646" lon="7.25404">
        <ele>670</ele>
        <time>2010-12-18T07:55:01Z</time>
      </trkpt>
      <trkpt lat="43.81638" lon="7.25396">
        <ele>671</ele>
        <time>2010-12-18T07:55:09Z</time>
      </trkpt>
      <trkpt lat="43.8163" lon="7.25388">
        <ele>672</ele>
        <time>2010-12-18T07:55:16Z</time>
      </trkpt>
      <trkpt lat="43.81623" lon="7.2538">
        <ele>674</ele>
        <time>2010-12-18T07:55:23Z</time>
      </trkpt>
      <trkpt lat="43.8162" lon="7.25376">
        <ele>675</ele>
        <time>2010-12-18T07:55:26Z</time>
      </trkpt>
      <trkpt lat="43.81612" lon="7.25369">
        <ele>680</ele>
        <time>2010-12-18T07:55:42Z</time>
      </trkpt>
      <trkpt lat="43.81604" lon="7.25364">
        <ele>682</ele>
        <time>2010-12-18T07:55:52Z</time>
      </trkpt>
      <trkpt lat="43.81595" lon="7.2536">
        <ele>686</ele>
        <time>2010-12-18T07:56:10Z</time>
      </trkpt>
      <trkpt lat="43.81585" lon="7.25358">
        <ele>692</ele>
        <time>2010-12-18T07:56:24Z</time>
      </trkpt>
      <trkpt lat="43.81579" lon="7.25348">
        <ele>699</ele>
        <time>2010-12-18T07:56:41Z</time>
      </trkpt>
      <trkpt lat="43.81571" lon="7.2534">
        <ele>703</ele>
        <time>2010-12-18T07:56:53Z</time>
      </trkpt>
      <trkpt lat="43.81562" lon="7.25336">
        <ele>703</ele>
        <time>2010-12-18T07:57:08Z</time>
      </trkpt>
      <trkpt lat="43.81553" lon="7.25337">
        <ele>704</ele>
        <time>2010-12-18T07:57:22Z</time>
      </trkpt>
      <trkpt lat="43.81551" lon="7.25338">
        <ele>704</ele>
        <time>2010-12-18T07:57:25Z</time>
      </trkpt>
      <trkpt lat="43.81542" lon="7.2534">
        <ele>705</ele>
        <time>2010-12-18T07:57:35Z</time>
      </trkpt>
      <trkpt lat="43.81533" lon="7.25343">
        <ele>706</ele>
        <time>2010-12-18T07:57:43Z</time>
      </trkpt>
      <trkpt lat="43.81527" lon="7.25345">
        <ele>706</ele>
        <time>2010-12-18T07:57:48Z</time>
      </trkpt>
      <trkpt lat="43.81519" lon="7.25353">
        <ele>707</ele>
        <time>2010-12-18T07:57:55Z</time>
      </trkpt>
      <trkpt lat="43.81511" lon="7.25359">
        <ele>709</ele>
        <time>2010-12-18T07:58:12Z</time>
      </trkpt>
      <trkpt lat="43.81502" lon="7.25362">
        <ele>708</ele>
        <time>2010-12-18T07:58:20Z</time>
      </trkpt>
      <trkpt lat="43.81492" lon="7.25366">
        <ele>710</ele>
        <time>2010-12-18T07:58:33Z</time>
      </trkpt>
      <trkpt lat="43.81484" lon="7.25372">
        <ele>724</ele>
        <time>2010-12-18T07:59:30Z</time>
      </trkpt>
      <trkpt lat="43.81475" lon="7.25377">
        <ele>723</ele>
        <time>2010-12-18T07:59:40Z</time>
      </trkpt>
      <trkpt lat="43.81473" lon="7.25378">
        <ele>722</ele>
        <time>2010-12-18T07:59:43Z</time>
      </trkpt>
      <trkpt lat="43.81464" lon="7.25383">
        <ele>728</ele>
        <time>2010-12-18T08:00:01Z</time>
      </trkpt>
      <trkpt lat="43.81463" lon="7.25383">
        <ele>727</ele>
        <time>2010-12-18T08:00:02Z</time>
      </trkpt>
      <trkpt lat="43.8146" lon="7.25385">
        <ele>727</ele>
        <time>2010-12-18T08:00:06Z</time>
      </trkpt>
      <trkpt lat="43.81451" lon="7.25388">
        <ele>727</ele>
        <time>2010-12-18T08:00:13Z</time>
      </trkpt>
      <trkpt lat="43.81442" lon="7.25392">
        <ele>727</ele>
        <time>2010-12-18T08:00:22Z</time>
      </trkpt>
      <trkpt lat="43.81442" lon="7.25392">
        <ele>727</ele>
        <time>2010-12-18T08:00:23Z</time>
      </trkpt>
      <trkpt lat="43.81432" lon="7.25393">
        <ele>727</ele>
        <time>2010-12-18T08:00:33Z</time>
      </trkpt>
      <trkpt lat="43.81423" lon="7.25393">
        <ele>728</ele>
        <time>2010-12-18T08:00:36Z</time>
      </trkpt>
      <trkpt lat="43.81413" lon="7.25392">
        <ele>728</ele>
        <time>2010-12-18T08:00:39Z</time>
      </trkpt>
      <trkpt lat="43.81405" lon="7.25391">
        <ele>728</ele>
        <time>2010-12-18T08:00:40Z</time>
      </trkpt>
      <trkpt lat="43.81393" lon="7.2539">
        <ele>728</ele>
        <time>2010-12-18T08:00:42Z</time>
      </trkpt>
      <trkpt lat="43.8138" lon="7.25388">
        <ele>728</ele>
        <time>2010-12-18T08:00:45Z</time>
      </trkpt>
      <trkpt lat="43.81366" lon="7.25387">
        <ele>728</ele>
        <time>2010-12-18T08:00:47Z</time>
      </trkpt>
      <trkpt lat="43.81354" lon="7.25385">
        <ele>728</ele>
        <time>2010-12-18T08:00:49Z</time>
      </trkpt>
      <trkpt lat="43.81341" lon="7.25381">
        <ele>728</ele>
        <time>2010-12-18T08:00:51Z</time>
      </trkpt>
      <trkpt lat="43.81329" lon="7.25377">
        <ele>728</ele>
        <time>2010-12-18T08:00:54Z</time>
      </trkpt>
      <trkpt lat="43.81318" lon="7.25373">
        <ele>728</ele>
        <time>2010-12-18T08:00:56Z</time>
      </trkpt>
      <trkpt lat="43.81309" lon="7.2537">
        <ele>727</ele>
        <time>2010-12-18T08:01:01Z</time>
      </trkpt>
      <trkpt lat="43.81299" lon="7.25369">
        <ele>728</ele>
        <time>2010-12-18T08:01:08Z</time>
      </trkpt>
      <trkpt lat="43.81298" lon="7.25369">
        <ele>728</ele>
        <time>2010-12-18T08:01:09Z</time>
      </trkpt>
      <trkpt lat="43.81289" lon="7.25367">
        <ele>728</ele>
        <time>2010-12-18T08:01:17Z</time>
      </trkpt>
      <trkpt lat="43.8128" lon="7.25362">
        <ele>728</ele>
        <time>2010-12-18T08:01:24Z</time>
      </trkpt>
      <trkpt lat="43.81272" lon="7.25358">
        <ele>731</ele>
        <time>2010-12-18T08:01:31Z</time>
      </trkpt>
      <trkpt lat="43.81263" lon="7.25354">
        <ele>733</ele>
        <time>2010-12-18T08:01:37Z</time>
      </trkpt>
      <trkpt lat="43.81254" lon="7.25348">
        <ele>733</ele>
        <time>2010-12-18T08:01:44Z</time>
      </trkpt>
      <trkpt lat="43.81247" lon="7.2534">
        <ele>735</ele>
        <time>2010-12-18T08:01:51Z</time>
      </trkpt>
      <trkpt lat="43.81238" lon="7.25339">
        <ele>737</ele>
        <time>2010-12-18T08:01:59Z</time>
      </trkpt>
      <trkpt lat="43.81228" lon="7.25338">
        <ele>739</ele>
        <time>2010-12-18T08:02:06Z</time>
      </trkpt>
      <trkpt lat="43.81219" lon="7.25335">
        <ele>740</ele>
        <time>2010-12-18T08:02:14Z</time>
      </trkpt>
      <trkpt lat="43.81211" lon="7.2533">
        <ele>743</ele>
        <time>2010-12-18T08:02:23Z</time>
      </trkpt>
      <trkpt lat="43.81204" lon="7.25327">
        <ele>745</ele>
        <time>2010-12-18T08:02:31Z</time>
      </trkpt>
      <trkpt lat="43.81195" lon="7.25325">
        <ele>744</ele>
        <time>2010-12-18T08:02:38Z</time>
      </trkpt>
      <trkpt lat="43.81185" lon="7.25322">
        <ele>744</ele>
        <time>2010-12-18T08:02:49Z</time>
      </trkpt>
      <trkpt lat="43.81179" lon="7.2532">
        <ele>745</ele>
        <time>2010-12-18T08:02:56Z</time>
      </trkpt>
      <trkpt lat="43.8117" lon="7.25316">
        <ele>747</ele>
        <time>2010-12-18T08:03:04Z</time>
      </trkpt>
      <trkpt lat="43.81161" lon="7.2531">
        <ele>747</ele>
        <time>2010-12-18T08:03:13Z</time>
      </trkpt>
      <trkpt lat="43.81153" lon="7.25304">
        <ele>749</ele>
        <time>2010-12-18T08:03:22Z</time>
      </trkpt>
      <trkpt lat="43.81152" lon="7.25302">
        <ele>749</ele>
        <time>2010-12-18T08:03:23Z</time>
      </trkpt>
      <trkpt lat="43.81144" lon="7.25295">
        <ele>751</ele>
        <time>2010-12-18T08:03:33Z</time>
      </trkpt>
      <trkpt lat="43.81136" lon="7.25289">
        <ele>751</ele>
        <time>2010-12-18T08:03:40Z</time>
      </trkpt>
      <trkpt lat="43.81133" lon="7.25288">
        <ele>752</ele>
        <time>2010-12-18T08:03:43Z</time>
      </trkpt>
      <trkpt lat="43.81124" lon="7.25285">
        <ele>752</ele>
        <time>2010-12-18T08:03:51Z</time>
      </trkpt>
      <trkpt lat="43.81122" lon="7.25285">
        <ele>752</ele>
        <time>2010-12-18T08:03:52Z</time>
      </trkpt>
      <trkpt lat="43.81114" lon="7.25279">
        <ele>752</ele>
        <time>2010-12-18T08:04:01Z</time>
      </trkpt>
      <trkpt lat="43.81106" lon="7.25271">
        <ele>753</ele>
        <time>2010-12-18T08:04:11Z</time>
      </trkpt>
      <trkpt lat="43.81099" lon="7.25263">
        <ele>755</ele>
        <time>2010-12-18T08:04:19Z</time>
      </trkpt>
      <trkpt lat="43.81093" lon="7.25256">
        <ele>756</ele>
        <time>2010-12-18T08:04:26Z</time>
      </trkpt>
      <trkpt lat="43.81085" lon="7.2525">
        <ele>758</ele>
        <time>2010-12-18T08:04:34Z</time>
      </trkpt>
      <trkpt lat="43.81076" lon="7.25245">
        <ele>762</ele>
        <time>2010-12-18T08:04:49Z</time>
      </trkpt>
      <trkpt lat="43.81068" lon="7.25238">
        <ele>765</ele>
        <time>2010-12-18T08:04:57Z</time>
      </trkpt>
      <trkpt lat="43.8106" lon="7.25231">
        <ele>766</ele>
        <time>2010-12-18T08:05:04Z</time>
      </trkpt>
      <trkpt lat="43.81053" lon="7.25224">
        <ele>768</ele>
        <time>2010-12-18T08:05:12Z</time>
      </trkpt>
      <trkpt lat="43.81052" lon="7.25223">
        <ele>768</ele>
        <time>2010-12-18T08:05:13Z</time>
      </trkpt>
      <trkpt lat="43.81045" lon="7.25214">
        <ele>770</ele>
        <time>2010-12-18T08:05:48Z</time>
      </trkpt>
      <trkpt lat="43.81039" lon="7.25204">
        <ele>771</ele>
        <time>2010-12-18T08:05:53Z</time>
      </trkpt>
      <trkpt lat="43.81036" lon="7.25199">
        <ele>771</ele>
        <time>2010-12-18T08:05:56Z</time>
      </trkpt>
      <trkpt lat="43.8103" lon="7.25189">
        <ele>771</ele>
        <time>2010-12-18T08:06:01Z</time>
      </trkpt>
      <trkpt lat="43.81025" lon="7.25184">
        <ele>772</ele>
        <time>2010-12-18T08:06:04Z</time>
      </trkpt>
      <trkpt lat="43.81017" lon="7.25176">
        <ele>774</ele>
        <time>2010-12-18T08:06:11Z</time>
      </trkpt>
      <trkpt lat="43.8101" lon="7.25167">
        <ele>775</ele>
        <time>2010-12-18T08:06:18Z</time>
      </trkpt>
      <trkpt lat="43.81003" lon="7.25158">
        <ele>777</ele>
        <time>2010-12-18T08:06:23Z</time>
      </trkpt>
      <trkpt lat="43.81002" lon="7.25156">
        <ele>776</ele>
        <time>2010-12-18T08:06:24Z</time>
      </trkpt>
      <trkpt lat="43.80995" lon="7.25147">
        <ele>777</ele>
        <time>2010-12-18T08:06:29Z</time>
      </trkpt>
      <trkpt lat="43.80994" lon="7.25142">
        <ele>777</ele>
        <time>2010-12-18T08:06:31Z</time>
      </trkpt>
      <trkpt lat="43.80989" lon="7.2513">
        <ele>778</ele>
        <time>2010-12-18T08:06:37Z</time>
      </trkpt>
      <trkpt lat="43.80983" lon="7.25121">
        <ele>778</ele>
        <time>2010-12-18T08:06:43Z</time>
      </trkpt>
      <trkpt lat="43.80975" lon="7.25112">
        <ele>778</ele>
        <time>2010-12-18T08:06:49Z</time>
      </trkpt>
      <trkpt lat="43.80972" lon="7.25109">
        <ele>777</ele>
        <time>2010-12-18T08:06:51Z</time>
      </trkpt>
      <trkpt lat="43.80964" lon="7.251">
        <ele>777</ele>
        <time>2010-12-18T08:06:57Z</time>
      </trkpt>
      <trkpt lat="43.80955" lon="7.25094">
        <ele>779</ele>
        <time>2010-12-18T08:07:04Z</time>
      </trkpt>
      <trkpt lat="43.80955" lon="7.25093">
        <ele>778</ele>
        <time>2010-12-18T08:07:05Z</time>
      </trkpt>
      <trkpt lat="43.80946" lon="7.25088">
        <ele>781</ele>
        <time>2010-12-18T08:07:13Z</time>
      </trkpt>
      <trkpt lat="43.80942" lon="7.25084">
        <ele>782</ele>
        <time>2010-12-18T08:07:17Z</time>
      </trkpt>
      <trkpt lat="43.80933" lon="7.25078">
        <ele>783</ele>
        <time>2010-12-18T08:07:23Z</time>
      </trkpt>
      <trkpt lat="43.80926" lon="7.25071">
        <ele>784</ele>
        <time>2010-12-18T08:07:30Z</time>
      </trkpt>
      <trkpt lat="43.80917" lon="7.25069">
        <ele>786</ele>
        <time>2010-12-18T08:07:35Z</time>
      </trkpt>
      <trkpt lat="43.80915" lon="7.25069">
        <ele>786</ele>
        <time>2010-12-18T08:07:36Z</time>
      </trkpt>
      <trkpt lat="43.80906" lon="7.25065">
        <ele>786</ele>
        <time>2010-12-18T08:07:41Z</time>
      </trkpt>
      <trkpt lat="43.80897" lon="7.25062">
        <ele>787</ele>
        <time>2010-12-18T08:07:46Z</time>
      </trkpt>
      <trkpt lat="43.80888" lon="7.25063">
        <ele>787</ele>
        <time>2010-12-18T08:07:50Z</time>
      </trkpt>
      <trkpt lat="43.80886" lon="7.25064">
        <ele>787</ele>
        <time>2010-12-18T08:07:50Z</time>
      </trkpt>
      <trkpt lat="43.80877" lon="7.25062">
        <ele>787</ele>
        <time>2010-12-18T08:07:55Z</time>
      </trkpt>
      <trkpt lat="43.80868" lon="7.25058">
        <ele>787</ele>
        <time>2010-12-18T08:07:59Z</time>
      </trkpt>
      <trkpt lat="43.80861" lon="7.25056">
        <ele>788</ele>
        <time>2010-12-18T08:08:03Z</time>
      </trkpt>
      <trkpt lat="43.80852" lon="7.2505">
        <ele>788</ele>
        <time>2010-12-18T08:08:08Z</time>
      </trkpt>
      <trkpt lat="43.80846" lon="7.2504">
        <ele>790</ele>
        <time>2010-12-18T08:08:25Z</time>
      </trkpt>
      <trkpt lat="43.80844" lon="7.25037">
        <ele>791</ele>
        <time>2010-12-18T08:08:28Z</time>
      </trkpt>
      <trkpt lat="43.80835" lon="7.25038">
        <ele>792</ele>
        <time>2010-12-18T08:08:40Z</time>
      </trkpt>
      <trkpt lat="43.8083" lon="7.25049">
        <ele>793</ele>
        <time>2010-12-18T08:08:46Z</time>
      </trkpt>
      <trkpt lat="43.80825" lon="7.25061">
        <ele>794</ele>
        <time>2010-12-18T08:08:54Z</time>
      </trkpt>
      <trkpt lat="43.80819" lon="7.25071">
        <ele>795</ele>
        <time>2010-12-18T08:09:02Z</time>
      </trkpt>
      <trkpt lat="43.80813" lon="7.25081">
        <ele>798</ele>
        <time>2010-12-18T08:09:10Z</time>
      </trkpt>
      <trkpt lat="43.80806" lon="7.25089">
        <ele>803</ele>
        <time>2010-12-18T08:09:17Z</time>
      </trkpt>
      <trkpt lat="43.80798" lon="7.25097">
        <ele>806</ele>
        <time>2010-12-18T08:09:23Z</time>
      </trkpt>
      <trkpt lat="43.8079" lon="7.25104">
        <ele>806</ele>
        <time>2010-12-18T08:09:29Z</time>
      </trkpt>
      <trkpt lat="43.80782" lon="7.25109">
        <ele>806</ele>
        <time>2010-12-18T08:09:36Z</time>
      </trkpt>
      <trkpt lat="43.80782" lon="7.25108">
        <ele>805</ele>
        <time>2010-12-18T08:09:47Z</time>
      </trkpt>
      <trkpt lat="43.80773" lon="7.25112">
        <ele>802</ele>
        <time>2010-12-18T08:10:29Z</time>
      </trkpt>
      <trkpt lat="43.80761" lon="7.25116">
        <ele>801</ele>
        <time>2010-12-18T08:10:35Z</time>
      </trkpt>
      <trkpt lat="43.80752" lon="7.25116">
        <ele>801</ele>
        <time>2010-12-18T08:10:37Z</time>
      </trkpt>
      <trkpt lat="43.80742" lon="7.25114">
        <ele>802</ele>
        <time>2010-12-18T08:10:39Z</time>
      </trkpt>
      <trkpt lat="43.80731" lon="7.25111">
        <ele>802</ele>
        <time>2010-12-18T08:10:41Z</time>
      </trkpt>
      <trkpt lat="43.80719" lon="7.25108">
        <ele>801</ele>
        <time>2010-12-18T08:10:44Z</time>
      </trkpt>
      <trkpt lat="43.80716" lon="7.25107">
        <ele>800</ele>
        <time>2010-12-18T08:10:44Z</time>
      </trkpt>
      <trkpt lat="43.80705" lon="7.25102">
        <ele>799</ele>
        <time>2010-12-18T08:10:59Z</time>
      </trkpt>
      <trkpt lat="43.80705" lon="7.25102">
        <ele>799</ele>
        <time>2010-12-18T08:11:12Z</time>
      </trkpt>
      <trkpt lat="43.80695" lon="7.251">
        <ele>788</ele>
        <time>2010-12-18T08:14:11Z</time>
      </trkpt>
      <trkpt lat="43.80693" lon="7.251">
        <ele>789</ele>
        <time>2010-12-18T08:14:12Z</time>
      </trkpt>
      <trkpt lat="43.80684" lon="7.251">
        <ele>791</ele>
        <time>2010-12-18T08:14:42Z</time>
      </trkpt>
      <trkpt lat="43.80672" lon="7.25102">
        <ele>791</ele>
        <time>2010-12-18T08:14:45Z</time>
      </trkpt>
      <trkpt lat="43.8066" lon="7.25103">
        <ele>791</ele>
        <time>2010-12-18T08:14:49Z</time>
      </trkpt>
      <trkpt lat="43.8065" lon="7.25103">
        <ele>791</ele>
        <time>2010-12-18T08:14:53Z</time>
      </trkpt>
      <trkpt lat="43.80641" lon="7.25105">
        <ele>791</ele>
        <time>2010-12-18T08:14:59Z</time>
      </trkpt>
      <trkpt lat="43.80631" lon="7.2511">
        <ele>792</ele>
        <time>2010-12-18T08:15:06Z</time>
      </trkpt>
      <trkpt lat="43.8063" lon="7.25111">
        <ele>793</ele>
        <time>2010-12-18T08:15:06Z</time>
      </trkpt>
      <trkpt lat="43.80619" lon="7.25114">
        <ele>794</ele>
        <time>2010-12-18T08:15:10Z</time>
      </trkpt>
      <trkpt lat="43.80607" lon="7.25117">
        <ele>795</ele>
        <time>2010-12-18T08:15:13Z</time>
      </trkpt>
      <trkpt lat="43.80596" lon="7.25118">
        <ele>795</ele>
        <time>2010-12-18T08:15:16Z</time>
      </trkpt>
      <trkpt lat="43.80585" lon="7.25119">
        <ele>795</ele>
        <time>2010-12-18T08:15:18Z</time>
      </trkpt>
      <trkpt lat="43.80572" lon="7.2512">
        <ele>795</ele>
        <time>2010-12-18T08:15:20Z</time>
      </trkpt>
      <trkpt lat="43.80559" lon="7.25121">
        <ele>796</ele>
        <time>2010-12-18T08:15:22Z</time>
      </trkpt>
      <trkpt lat="43.80547" lon="7.25121">
        <ele>794</ele>
        <time>2010-12-18T08:15:25Z</time>
      </trkpt>
      <trkpt lat="43.80536" lon="7.25122">
        <ele>794</ele>
        <time>2010-12-18T08:15:27Z</time>
      </trkpt>
      <trkpt lat="43.80524" lon="7.25124">
        <ele>793</ele>
        <time>2010-12-18T08:15:29Z</time>
      </trkpt>
      <trkpt lat="43.80515" lon="7.25127">
        <ele>792</ele>
        <time>2010-12-18T08:15:32Z</time>
      </trkpt>
      <trkpt lat="43.80504" lon="7.25131">
        <ele>791</ele>
        <time>2010-12-18T08:15:36Z</time>
      </trkpt>
      <trkpt lat="43.80495" lon="7.25134">
        <ele>791</ele>
        <time>2010-12-18T08:15:39Z</time>
      </trkpt>
      <trkpt lat="43.80484" lon="7.25137">
        <ele>791</ele>
        <time>2010-12-18T08:15:42Z</time>
      </trkpt>
      <trkpt lat="43.80474" lon="7.25141">
        <ele>791</ele>
        <time>2010-12-18T08:15:45Z</time>
      </trkpt>
      <trkpt lat="43.80464" lon="7.25144">
        <ele>792</ele>
        <time>2010-12-18T08:15:48Z</time>
      </trkpt>
      <trkpt lat="43.80453" lon="7.25148">
        <ele>793</ele>
        <time>2010-12-18T08:15:51Z</time>
      </trkpt>
      <trkpt lat="43.80443" lon="7.25151">
        <ele>794</ele>
        <time>2010-12-18T08:15:54Z</time>
      </trkpt>
      <trkpt lat="43.80432" lon="7.25155">
        <ele>794</ele>
        <time>2010-12-18T08:15:57Z</time>
      </trkpt>
      <trkpt lat="43.80422" lon="7.25158">
        <ele>793</ele>
        <time>2010-12-18T08:15:59Z</time>
      </trkpt>
      <trkpt lat="43.8041" lon="7.25163">
        <ele>793</ele>
        <time>2010-12-18T08:16:01Z</time>
      </trkpt>
      <trkpt lat="43.80398" lon="7.25169">
        <ele>792</ele>
        <time>2010-12-18T08:16:03Z</time>
      </trkpt>
      <trkpt lat="43.80385" lon="7.25172">
        <ele>792</ele>
        <time>2010-12-18T08:16:06Z</time>
      </trkpt>
      <trkpt lat="43.80372" lon="7.25175">
        <ele>791</ele>
        <time>2010-12-18T08:16:08Z</time>
      </trkpt>
      <trkpt lat="43.8036" lon="7.25176">
        <ele>790</ele>
        <time>2010-12-18T08:16:10Z</time>
      </trkpt>
      <trkpt lat="43.80346" lon="7.25176">
        <ele>790</ele>
        <time>2010-12-18T08:16:12Z</time>
      </trkpt>
      <trkpt lat="43.80335" lon="7.25175">
        <ele>790</ele>
        <time>2010-12-18T08:16:14Z</time>
      </trkpt>
      <trkpt lat="43.80323" lon="7.25173">
        <ele>789</ele>
        <time>2010-12-18T08:16:15Z</time>
      </trkpt>
      <trkpt lat="43.80311" lon="7.2517">
        <ele>789</ele>
        <time>2010-12-18T08:16:17Z</time>
      </trkpt>
      <trkpt lat="43.80301" lon="7.25164">
        <ele>788</ele>
        <time>2010-12-18T08:16:18Z</time>
      </trkpt>
      <trkpt lat="43.80291" lon="7.25158">
        <ele>787</ele>
        <time>2010-12-18T08:16:20Z</time>
      </trkpt>
      <trkpt lat="43.80282" lon="7.25152">
        <ele>786</ele>
        <time>2010-12-18T08:16:22Z</time>
      </trkpt>
      <trkpt lat="43.80273" lon="7.25145">
        <ele>785</ele>
        <time>2010-12-18T08:16:23Z</time>
      </trkpt>
      <trkpt lat="43.80265" lon="7.25136">
        <ele>784</ele>
        <time>2010-12-18T08:16:25Z</time>
      </trkpt>
      <trkpt lat="43.80259" lon="7.25127">
        <ele>783</ele>
        <time>2010-12-18T08:16:28Z</time>
      </trkpt>
      <trkpt lat="43.8025" lon="7.25116">
        <ele>782</ele>
        <time>2010-12-18T08:16:31Z</time>
      </trkpt>
      <trkpt lat="43.80241" lon="7.25106">
        <ele>781</ele>
        <time>2010-12-18T08:16:34Z</time>
      </trkpt>
      <trkpt lat="43.80232" lon="7.25096">
        <ele>781</ele>
        <time>2010-12-18T08:16:36Z</time>
      </trkpt>
      <trkpt lat="43.80223" lon="7.25085">
        <ele>780</ele>
        <time>2010-12-18T08:16:38Z</time>
      </trkpt>
      <trkpt lat="43.80215" lon="7.25072">
        <ele>779</ele>
        <time>2010-12-18T08:16:40Z</time>
      </trkpt>
      <trkpt lat="43.80208" lon="7.25058">
        <ele>779</ele>
        <time>2010-12-18T08:16:43Z</time>
      </trkpt>
      <trkpt lat="43.80202" lon="7.25042">
        <ele>779</ele>
        <time>2010-12-18T08:16:45Z</time>
      </trkpt>
      <trkpt lat="43.80197" lon="7.25026">
        <ele>778</ele>
        <time>2010-12-18T08:16:47Z</time>
      </trkpt>
      <trkpt lat="43.8019" lon="7.25014">
        <ele>777</ele>
        <time>2010-12-18T08:16:50Z</time>
      </trkpt>
      <trkpt lat="43.80182" lon="7.25003">
        <ele>776</ele>
        <time>2010-12-18T08:16:53Z</time>
      </trkpt>
      <trkpt lat="43.80176" lon="7.24995">
        <ele>776</ele>
        <time>2010-12-18T08:16:54Z</time>
      </trkpt>
      <trkpt lat="43.80167" lon="7.24985">
        <ele>775</ele>
        <time>2010-12-18T08:16:56Z</time>
      </trkpt>
      <trkpt lat="43.80159" lon="7.24978">
        <ele>775</ele>
        <time>2010-12-18T08:16:59Z</time>
      </trkpt>
      <trkpt lat="43.80148" lon="7.24977">
        <ele>774</ele>
        <time>2010-12-18T08:17:02Z</time>
      </trkpt>
      <trkpt lat="43.80135" lon="7.24977">
        <ele>773</ele>
        <time>2010-12-18T08:17:04Z</time>
      </trkpt>
      <trkpt lat="43.80125" lon="7.2497">
        <ele>773</ele>
        <time>2010-12-18T08:17:06Z</time>
      </trkpt>
      <trkpt lat="43.80118" lon="7.24962">
        <ele>774</ele>
        <time>2010-12-18T08:17:08Z</time>
      </trkpt>
      <trkpt lat="43.80112" lon="7.24952">
        <ele>774</ele>
        <time>2010-12-18T08:17:10Z</time>
      </trkpt>
      <trkpt lat="43.80105" lon="7.24941">
        <ele>774</ele>
        <time>2010-12-18T08:17:13Z</time>
      </trkpt>
      <trkpt lat="43.80099" lon="7.24928">
        <ele>774</ele>
        <time>2010-12-18T08:17:15Z</time>
      </trkpt>
      <trkpt lat="43.80092" lon="7.24917">
        <ele>774</ele>
        <time>2010-12-18T08:17:17Z</time>
      </trkpt>
      <trkpt lat="43.80086" lon="7.24905">
        <ele>773</ele>
        <time>2010-12-18T08:17:20Z</time>
      </trkpt>
      <trkpt lat="43.80081" lon="7.24891">
        <ele>773</ele>
        <time>2010-12-18T08:17:22Z</time>
      </trkpt>
      <trkpt lat="43.80077" lon="7.24877">
        <ele>772</ele>
        <time>2010-12-18T08:17:23Z</time>
      </trkpt>
      <trkpt lat="43.80073" lon="7.24863">
        <ele>771</ele>
        <time>2010-12-18T08:17:25Z</time>
      </trkpt>
      <trkpt lat="43.80072" lon="7.24847">
        <ele>771</ele>
        <time>2010-12-18T08:17:26Z</time>
      </trkpt>
      <trkpt lat="43.80072" lon="7.24834">
        <ele>770</ele>
        <time>2010-12-18T08:17:28Z</time>
      </trkpt>
      <trkpt lat="43.80076" lon="7.24816">
        <ele>769</ele>
        <time>2010-12-18T08:17:30Z</time>
      </trkpt>
      <trkpt lat="43.80075" lon="7.24801">
        <ele>768</ele>
        <time>2010-12-18T08:17:32Z</time>
      </trkpt>
      <trkpt lat="43.80073" lon="7.24789">
        <ele>767</ele>
        <time>2010-12-18T08:17:35Z</time>
      </trkpt>
      <trkpt lat="43.8007" lon="7.24777">
        <ele>766</ele>
        <time>2010-12-18T08:17:38Z</time>
      </trkpt>
      <trkpt lat="43.80067" lon="7.24764">
        <ele>764</ele>
        <time>2010-12-18T08:17:41Z</time>
      </trkpt>
      <trkpt lat="43.80064" lon="7.24751">
        <ele>762</ele>
        <time>2010-12-18T08:17:45Z</time>
      </trkpt>
      <trkpt lat="43.80063" lon="7.24738">
        <ele>761</ele>
        <time>2010-12-18T08:17:48Z</time>
      </trkpt>
      <trkpt lat="43.8006" lon="7.24722">
        <ele>759</ele>
        <time>2010-12-18T08:17:52Z</time>
      </trkpt>
      <trkpt lat="43.80056" lon="7.24708">
        <ele>758</ele>
        <time>2010-12-18T08:17:54Z</time>
      </trkpt>
      <trkpt lat="43.80049" lon="7.24696">
        <ele>756</ele>
        <time>2010-12-18T08:17:56Z</time>
      </trkpt>
      <trkpt lat="43.80044" lon="7.24685">
        <ele>755</ele>
        <time>2010-12-18T08:17:59Z</time>
      </trkpt>
      <trkpt lat="43.80041" lon="7.24674">
        <ele>754</ele>
        <time>2010-12-18T08:18:02Z</time>
      </trkpt>
      <trkpt lat="43.80031" lon="7.2467">
        <ele>753</ele>
        <time>2010-12-18T08:18:07Z</time>
      </trkpt>
      <trkpt lat="43.80022" lon="7.24673">
        <ele>752</ele>
        <time>2010-12-18T08:18:12Z</time>
      </trkpt>
      <trkpt lat="43.80012" lon="7.24672">
        <ele>752</ele>
        <time>2010-12-18T08:18:18Z</time>
      </trkpt>
      <trkpt lat="43.79998" lon="7.24677">
        <ele>744</ele>
        <time>2010-12-18T08:18:49Z</time>
      </trkpt>
      <trkpt lat="43.79982" lon="7.24682">
        <ele>744</ele>
        <time>2010-12-18T08:19:09Z</time>
      </trkpt>
      <trkpt lat="43.79973" lon="7.24683">
        <ele>742</ele>
        <time>2010-12-18T08:19:16Z</time>
      </trkpt>
      <trkpt lat="43.79964" lon="7.24684">
        <ele>741</ele>
        <time>2010-12-18T08:19:23Z</time>
      </trkpt>
      <trkpt lat="43.79954" lon="7.24685">
        <ele>742</ele>
        <time>2010-12-18T08:19:29Z</time>
      </trkpt>
      <trkpt lat="43.79945" lon="7.24686">
        <ele>744</ele>
        <time>2010-12-18T08:19:37Z</time>
      </trkpt>
      <trkpt lat="43.79936" lon="7.24688">
        <ele>745</ele>
        <time>2010-12-18T08:19:46Z</time>
      </trkpt>
      <trkpt lat="43.79935" lon="7.24689">
        <ele>745</ele>
        <time>2010-12-18T08:19:47Z</time>
      </trkpt>
      <trkpt lat="43.79924" lon="7.24692">
        <ele>747</ele>
        <time>2010-12-18T08:19:59Z</time>
      </trkpt>
      <trkpt lat="43.7992" lon="7.24694">
        <ele>747</ele>
        <time>2010-12-18T08:20:03Z</time>
      </trkpt>
      <trkpt lat="43.7991" lon="7.24699">
        <ele>749</ele>
        <time>2010-12-18T08:20:15Z</time>
      </trkpt>
      <trkpt lat="43.79901" lon="7.24701">
        <ele>749</ele>
        <time>2010-12-18T08:20:24Z</time>
      </trkpt>
      <trkpt lat="43.79892" lon="7.24704">
        <ele>751</ele>
        <time>2010-12-18T08:20:33Z</time>
      </trkpt>
      <trkpt lat="43.79882" lon="7.24707">
        <ele>752</ele>
        <time>2010-12-18T08:20:41Z</time>
      </trkpt>
      <trkpt lat="43.79873" lon="7.24709">
        <ele>753</ele>
        <time>2010-12-18T08:20:50Z</time>
      </trkpt>
      <trkpt lat="43.79869" lon="7.24711">
        <ele>753</ele>
        <time>2010-12-18T08:20:53Z</time>
      </trkpt>
      <trkpt lat="43.7986" lon="7.24714">
        <ele>755</ele>
        <time>2010-12-18T08:21:03Z</time>
      </trkpt>
      <trkpt lat="43.79852" lon="7.24719">
        <ele>759</ele>
        <time>2010-12-18T08:21:12Z</time>
      </trkpt>
      <trkpt lat="43.79843" lon="7.24724">
        <ele>762</ele>
        <time>2010-12-18T08:21:21Z</time>
      </trkpt>
      <trkpt lat="43.79835" lon="7.24729">
        <ele>764</ele>
        <time>2010-12-18T08:21:29Z</time>
      </trkpt>
      <trkpt lat="43.79833" lon="7.2473">
        <ele>764</ele>
        <time>2010-12-18T08:21:31Z</time>
      </trkpt>
      <trkpt lat="43.79825" lon="7.24736">
        <ele>767</ele>
        <time>2010-12-18T08:21:39Z</time>
      </trkpt>
      <trkpt lat="43.79818" lon="7.24744">
        <ele>770</ele>
        <time>2010-12-18T08:21:48Z</time>
      </trkpt>
      <trkpt lat="43.7981" lon="7.24751">
        <ele>770</ele>
        <time>2010-12-18T08:21:59Z</time>
      </trkpt>
      <trkpt lat="43.79801" lon="7.24755">
        <ele>768</ele>
        <time>2010-12-18T08:22:12Z</time>
      </trkpt>
      <trkpt lat="43.79801" lon="7.24757">
        <ele>765</ele>
        <time>2010-12-18T08:22:39Z</time>
      </trkpt>
      <trkpt lat="43.79792" lon="7.24759">
        <ele>768</ele>
        <time>2010-12-18T08:23:19Z</time>
      </trkpt>
      <trkpt lat="43.7979" lon="7.24761">
        <ele>768</ele>
        <time>2010-12-18T08:23:20Z</time>
      </trkpt>
      <trkpt lat="43.79783" lon="7.24769">
        <ele>769</ele>
        <time>2010-12-18T08:23:25Z</time>
      </trkpt>
      <trkpt lat="43.79774" lon="7.24776">
        <ele>769</ele>
        <time>2010-12-18T08:23:29Z</time>
      </trkpt>
      <trkpt lat="43.79764" lon="7.24781">
        <ele>770</ele>
        <time>2010-12-18T08:23:33Z</time>
      </trkpt>
      <trkpt lat="43.79754" lon="7.24786">
        <ele>770</ele>
        <time>2010-12-18T08:23:36Z</time>
      </trkpt>
      <trkpt lat="43.79745" lon="7.24791">
        <ele>771</ele>
        <time>2010-12-18T08:23:38Z</time>
      </trkpt>
      <trkpt lat="43.79736" lon="7.24796">
        <ele>771</ele>
        <time>2010-12-18T08:23:40Z</time>
      </trkpt>
      <trkpt lat="43.79728" lon="7.24801">
        <ele>771</ele>
        <time>2010-12-18T08:23:41Z</time>
      </trkpt>
      <trkpt lat="43.79717" lon="7.2481">
        <ele>770</ele>
        <time>2010-12-18T08:23:43Z</time>
      </trkpt>
      <trkpt lat="43.79706" lon="7.2482">
        <ele>769</ele>
        <time>2010-12-18T08:23:46Z</time>
      </trkpt>
      <trkpt lat="43.79696" lon="7.2483">
        <ele>769</ele>
        <time>2010-12-18T08:23:48Z</time>
      </trkpt>
      <trkpt lat="43.79687" lon="7.24841">
        <ele>768</ele>
        <time>2010-12-18T08:23:50Z</time>
      </trkpt>
      <trkpt lat="43.79678" lon="7.24852">
        <ele>767</ele>
        <time>2010-12-18T08:23:52Z</time>
      </trkpt>
      <trkpt lat="43.79668" lon="7.24863">
        <ele>766</ele>
        <time>2010-12-18T08:23:54Z</time>
      </trkpt>
      <trkpt lat="43.79658" lon="7.24874">
        <ele>766</ele>
        <time>2010-12-18T08:23:57Z</time>
      </trkpt>
      <trkpt lat="43.79648" lon="7.24885">
        <ele>765</ele>
        <time>2010-12-18T08:23:59Z</time>
      </trkpt>
      <trkpt lat="43.7964" lon="7.24892">
        <ele>765</ele>
        <time>2010-12-18T08:24:00Z</time>
      </trkpt>
      <trkpt lat="43.79631" lon="7.24895">
        <ele>764</ele>
        <time>2010-12-18T08:24:02Z</time>
      </trkpt>
      <trkpt lat="43.79618" lon="7.24898">
        <ele>763</ele>
        <time>2010-12-18T08:24:04Z</time>
      </trkpt>
      <trkpt lat="43.79609" lon="7.249">
        <ele>762</ele>
        <time>2010-12-18T08:24:06Z</time>
      </trkpt>
      <trkpt lat="43.796" lon="7.24902">
        <ele>762</ele>
        <time>2010-12-18T08:24:07Z</time>
      </trkpt>
      <trkpt lat="43.7959" lon="7.24903">
        <ele>762</ele>
        <time>2010-12-18T08:24:09Z</time>
      </trkpt>
      <trkpt lat="43.79577" lon="7.24903">
        <ele>762</ele>
        <time>2010-12-18T08:24:10Z</time>
      </trkpt>
      <trkpt lat="43.79564" lon="7.24902">
        <ele>761</ele>
        <time>2010-12-18T08:24:12Z</time>
      </trkpt>
      <trkpt lat="43.79551" lon="7.24903">
        <ele>761</ele>
        <time>2010-12-18T08:24:13Z</time>
      </trkpt>
      <trkpt lat="43.79539" lon="7.24902">
        <ele>760</ele>
        <time>2010-12-18T08:24:15Z</time>
      </trkpt>
      <trkpt lat="43.79528" lon="7.24901">
        <ele>760</ele>
        <time>2010-12-18T08:24:16Z</time>
      </trkpt>
      <trkpt lat="43.79516" lon="7.249">
        <ele>759</ele>
        <time>2010-12-18T08:24:18Z</time>
      </trkpt>
      <trkpt lat="43.79505" lon="7.24898">
        <ele>758</ele>
        <time>2010-12-18T08:24:19Z</time>
      </trkpt>
      <trkpt lat="43.79499" lon="7.24897">
        <ele>757</ele>
        <time>2010-12-18T08:24:20Z</time>
      </trkpt>
      <trkpt lat="43.79489" lon="7.24894">
        <ele>756</ele>
        <time>2010-12-18T08:24:21Z</time>
      </trkpt>
      <trkpt lat="43.79478" lon="7.2489">
        <ele>755</ele>
        <time>2010-12-18T08:24:23Z</time>
      </trkpt>
      <trkpt lat="43.79468" lon="7.24885">
        <ele>754</ele>
        <time>2010-12-18T08:24:25Z</time>
      </trkpt>
      <trkpt lat="43.79457" lon="7.2488">
        <ele>754</ele>
        <time>2010-12-18T08:24:26Z</time>
      </trkpt>
      <trkpt lat="43.79447" lon="7.24875">
        <ele>753</ele>
        <time>2010-12-18T08:24:28Z</time>
      </trkpt>
      <trkpt lat="43.79436" lon="7.2487">
        <ele>752</ele>
        <time>2010-12-18T08:24:29Z</time>
      </trkpt>
      <trkpt lat="43.79427" lon="7.24865">
        <ele>751</ele>
        <time>2010-12-18T08:24:31Z</time>
      </trkpt>
      <trkpt lat="43.79417" lon="7.24859">
        <ele>751</ele>
        <time>2010-12-18T08:24:32Z</time>
      </trkpt>
      <trkpt lat="43.79407" lon="7.24853">
        <ele>750</ele>
        <time>2010-12-18T08:24:34Z</time>
      </trkpt>
      <trkpt lat="43.79397" lon="7.24849">
        <ele>749</ele>
        <time>2010-12-18T08:24:35Z</time>
      </trkpt>
      <trkpt lat="43.79392" lon="7.24847">
        <ele>748</ele>
        <time>2010-12-18T08:24:36Z</time>
      </trkpt>
      <trkpt lat="43.79382" lon="7.24843">
        <ele>748</ele>
        <time>2010-12-18T08:24:37Z</time>
      </trkpt>
      <trkpt lat="43.79373" lon="7.2484">
        <ele>748</ele>
        <time>2010-12-18T08:24:39Z</time>
      </trkpt>
      <trkpt lat="43.79363" lon="7.24836">
        <ele>748</ele>
        <time>2010-12-18T08:24:42Z</time>
      </trkpt>
      <trkpt lat="43.79353" lon="7.24835">
        <ele>747</ele>
        <time>2010-12-18T08:24:45Z</time>
      </trkpt>
      <trkpt lat="43.7934" lon="7.24835">
        <ele>746</ele>
        <time>2010-12-18T08:24:47Z</time>
      </trkpt>
      <trkpt lat="43.79329" lon="7.24833">
        <ele>746</ele>
        <time>2010-12-18T08:24:49Z</time>
      </trkpt>
      <trkpt lat="43.79318" lon="7.24828">
        <ele>745</ele>
        <time>2010-12-18T08:24:50Z</time>
      </trkpt>
      <trkpt lat="43.79307" lon="7.24822">
        <ele>744</ele>
        <time>2010-12-18T08:24:52Z</time>
      </trkpt>
      <trkpt lat="43.79296" lon="7.24817">
        <ele>743</ele>
        <time>2010-12-18T08:24:53Z</time>
      </trkpt>
      <trkpt lat="43.79286" lon="7.2481">
        <ele>742</ele>
        <time>2010-12-18T08:24:56Z</time>
      </trkpt>
      <trkpt lat="43.79274" lon="7.24813">
        <ele>741</ele>
        <time>2010-12-18T08:24:59Z</time>
      </trkpt>
      <trkpt lat="43.79265" lon="7.24821">
        <ele>740</ele>
        <time>2010-12-18T08:25:01Z</time>
      </trkpt>
      <trkpt lat="43.79254" lon="7.24827">
        <ele>739</ele>
        <time>2010-12-18T08:25:03Z</time>
      </trkpt>
      <trkpt lat="43.79243" lon="7.24831">
        <ele>739</ele>
        <time>2010-12-18T08:25:05Z</time>
      </trkpt>
      <trkpt lat="43.79233" lon="7.24837">
        <ele>737</ele>
        <time>2010-12-18T08:25:08Z</time>
      </trkpt>
      <trkpt lat="43.79224" lon="7.24845">
        <ele>736</ele>
        <time>2010-12-18T08:25:11Z</time>
      </trkpt>
      <trkpt lat="43.79217" lon="7.24854">
        <ele>735</ele>
        <time>2010-12-18T08:25:14Z</time>
      </trkpt>
      <trkpt lat="43.7921" lon="7.24862">
        <ele>735</ele>
        <time>2010-12-18T08:25:17Z</time>
      </trkpt>
      <trkpt lat="43.79202" lon="7.24871">
        <ele>734</ele>
        <time>2010-12-18T08:25:20Z</time>
      </trkpt>
      <trkpt lat="43.79195" lon="7.24881">
        <ele>733</ele>
        <time>2010-12-18T08:25:26Z</time>
      </trkpt>
      <trkpt lat="43.79198" lon="7.24894">
        <ele>733</ele>
        <time>2010-12-18T08:25:31Z</time>
      </trkpt>
      <trkpt lat="43.79201" lon="7.24897">
        <ele>732</ele>
        <time>2010-12-18T08:25:37Z</time>
      </trkpt>
      <trkpt lat="43.79202" lon="7.24911">
        <ele>727</ele>
        <time>2010-12-18T08:25:52Z</time>
      </trkpt>
      <trkpt lat="43.79199" lon="7.24924">
        <ele>726</ele>
        <time>2010-12-18T08:25:57Z</time>
      </trkpt>
      <trkpt lat="43.79206" lon="7.24933">
        <ele>724</ele>
        <time>2010-12-18T08:26:04Z</time>
      </trkpt>
      <trkpt lat="43.79216" lon="7.24931">
        <ele>722</ele>
        <time>2010-12-18T08:26:07Z</time>
      </trkpt>
      <trkpt lat="43.79217" lon="7.24944">
        <ele>718</ele>
        <time>2010-12-18T08:26:16Z</time>
      </trkpt>
      <trkpt lat="43.79227" lon="7.24947">
        <ele>714</ele>
        <time>2010-12-18T08:26:29Z</time>
      </trkpt>
      <trkpt lat="43.79236" lon="7.24945">
        <ele>712</ele>
        <time>2010-12-18T08:26:35Z</time>
      </trkpt>
      <trkpt lat="43.79247" lon="7.24949">
        <ele>710</ele>
        <time>2010-12-18T08:26:38Z</time>
      </trkpt>
      <trkpt lat="43.79254" lon="7.2496">
        <ele>708</ele>
        <time>2010-12-18T08:26:42Z</time>
      </trkpt>
      <trkpt lat="43.79261" lon="7.2497">
        <ele>706</ele>
        <time>2010-12-18T08:26:46Z</time>
      </trkpt>
      <trkpt lat="43.79262" lon="7.24984">
        <ele>702</ele>
        <time>2010-12-18T08:26:50Z</time>
      </trkpt>
      <trkpt lat="43.79268" lon="7.24994">
        <ele>696</ele>
        <time>2010-12-18T08:26:58Z</time>
      </trkpt>
      <trkpt lat="43.79268" lon="7.25007">
        <ele>693</ele>
        <time>2010-12-18T08:27:02Z</time>
      </trkpt>
      <trkpt lat="43.79261" lon="7.25015">
        <ele>668</ele>
        <time>2010-12-18T08:28:08Z</time>
      </trkpt>
      <trkpt lat="43.79253" lon="7.25022">
        <ele>668</ele>
        <time>2010-12-18T08:28:12Z</time>
      </trkpt>
      <trkpt lat="43.79243" lon="7.25028">
        <ele>668</ele>
        <time>2010-12-18T08:28:16Z</time>
      </trkpt>
      <trkpt lat="43.79235" lon="7.25033">
        <ele>669</ele>
        <time>2010-12-18T08:28:19Z</time>
      </trkpt>
      <trkpt lat="43.79227" lon="7.25038">
        <ele>670</ele>
        <time>2010-12-18T08:28:22Z</time>
      </trkpt>
      <trkpt lat="43.79217" lon="7.25042">
        <ele>670</ele>
        <time>2010-12-18T08:28:25Z</time>
      </trkpt>
      <trkpt lat="43.79207" lon="7.25051">
        <ele>671</ele>
        <time>2010-12-18T08:28:28Z</time>
      </trkpt>
      <trkpt lat="43.79198" lon="7.25061">
        <ele>670</ele>
        <time>2010-12-18T08:28:31Z</time>
      </trkpt>
      <trkpt lat="43.79189" lon="7.25071">
        <ele>670</ele>
        <time>2010-12-18T08:28:34Z</time>
      </trkpt>
      <trkpt lat="43.79181" lon="7.25082">
        <ele>670</ele>
        <time>2010-12-18T08:28:37Z</time>
      </trkpt>
      <trkpt lat="43.79179" lon="7.25086">
        <ele>670</ele>
        <time>2010-12-18T08:28:37Z</time>
      </trkpt>
      <trkpt lat="43.79172" lon="7.25097">
        <ele>669</ele>
        <time>2010-12-18T08:28:40Z</time>
      </trkpt>
      <trkpt lat="43.79166" lon="7.25107">
        <ele>670</ele>
        <time>2010-12-18T08:28:42Z</time>
      </trkpt>
      <trkpt lat="43.7916" lon="7.25116">
        <ele>670</ele>
        <time>2010-12-18T08:28:44Z</time>
      </trkpt>
      <trkpt lat="43.79155" lon="7.25128">
        <ele>671</ele>
        <time>2010-12-18T08:28:46Z</time>
      </trkpt>
      <trkpt lat="43.7915" lon="7.25139">
        <ele>671</ele>
        <time>2010-12-18T08:28:49Z</time>
      </trkpt>
      <trkpt lat="43.79146" lon="7.25152">
        <ele>670</ele>
        <time>2010-12-18T08:28:52Z</time>
      </trkpt>
      <trkpt lat="43.79139" lon="7.25161">
        <ele>669</ele>
        <time>2010-12-18T08:28:57Z</time>
      </trkpt>
      <trkpt lat="43.7914" lon="7.25175">
        <ele>669</ele>
        <time>2010-12-18T08:29:04Z</time>
      </trkpt>
      <trkpt lat="43.79135" lon="7.25187">
        <ele>669</ele>
        <time>2010-12-18T08:29:07Z</time>
      </trkpt>
      <trkpt lat="43.7913" lon="7.25197">
        <ele>668</ele>
        <time>2010-12-18T08:29:10Z</time>
      </trkpt>
      <trkpt lat="43.79125" lon="7.25208">
        <ele>668</ele>
        <time>2010-12-18T08:29:13Z</time>
      </trkpt>
      <trkpt lat="43.79118" lon="7.25217">
        <ele>665</ele>
        <time>2010-12-18T08:29:18Z</time>
      </trkpt>
      <trkpt lat="43.79113" lon="7.25221">
        <ele>664</ele>
        <time>2010-12-18T08:29:21Z</time>
      </trkpt>
      <trkpt lat="43.79105" lon="7.25231">
        <ele>662</ele>
        <time>2010-12-18T08:29:25Z</time>
      </trkpt>
      <trkpt lat="43.79097" lon="7.25238">
        <ele>661</ele>
        <time>2010-12-18T08:29:29Z</time>
      </trkpt>
      <trkpt lat="43.79084" lon="7.25241">
        <ele>658</ele>
        <time>2010-12-18T08:29:36Z</time>
      </trkpt>
      <trkpt lat="43.79084" lon="7.25241">
        <ele>658</ele>
        <time>2010-12-18T08:29:47Z</time>
      </trkpt>
      <trkpt lat="43.79075" lon="7.25238">
        <ele>650</ele>
        <time>2010-12-18T08:29:48Z</time>
      </trkpt>
      <trkpt lat="43.79065" lon="7.25236">
        <ele>648</ele>
        <time>2010-12-18T08:29:52Z</time>
      </trkpt>
      <trkpt lat="43.79057" lon="7.25228">
        <ele>648</ele>
        <time>2010-12-18T08:29:57Z</time>
      </trkpt>
      <trkpt lat="43.79055" lon="7.25224">
        <ele>647</ele>
        <time>2010-12-18T08:30:17Z</time>
      </trkpt>
      <trkpt lat="43.79049" lon="7.25214">
        <ele>645</ele>
        <time>2010-12-18T08:30:27Z</time>
      </trkpt>
      <trkpt lat="43.79043" lon="7.25203">
        <ele>645</ele>
        <time>2010-12-18T08:30:32Z</time>
      </trkpt>
      <trkpt lat="43.79036" lon="7.25193">
        <ele>645</ele>
        <time>2010-12-18T08:30:38Z</time>
      </trkpt>
      <trkpt lat="43.79034" lon="7.2519">
        <ele>645</ele>
        <time>2010-12-18T08:30:40Z</time>
      </trkpt>
      <trkpt lat="43.79029" lon="7.25177">
        <ele>645</ele>
        <time>2010-12-18T08:30:44Z</time>
      </trkpt>
      <trkpt lat="43.79023" lon="7.25166">
        <ele>645</ele>
        <time>2010-12-18T08:30:47Z</time>
      </trkpt>
      <trkpt lat="43.79016" lon="7.25156">
        <ele>644</ele>
        <time>2010-12-18T08:30:49Z</time>
      </trkpt>
      <trkpt lat="43.79011" lon="7.2515">
        <ele>644</ele>
        <time>2010-12-18T08:30:50Z</time>
      </trkpt>
      <trkpt lat="43.79004" lon="7.2514">
        <ele>645</ele>
        <time>2010-12-18T08:30:53Z</time>
      </trkpt>
      <trkpt lat="43.78997" lon="7.2513">
        <ele>645</ele>
        <time>2010-12-18T08:30:57Z</time>
      </trkpt>
      <trkpt lat="43.7899" lon="7.25118">
        <ele>646</ele>
        <time>2010-12-18T08:31:02Z</time>
      </trkpt>
      <trkpt lat="43.78983" lon="7.25107">
        <ele>646</ele>
        <time>2010-12-18T08:31:06Z</time>
      </trkpt>
      <trkpt lat="43.78977" lon="7.25095">
        <ele>645</ele>
        <time>2010-12-18T08:31:09Z</time>
      </trkpt>
      <trkpt lat="43.7897" lon="7.25081">
        <ele>645</ele>
        <time>2010-12-18T08:31:12Z</time>
      </trkpt>
      <trkpt lat="43.78965" lon="7.25068">
        <ele>645</ele>
        <time>2010-12-18T08:31:15Z</time>
      </trkpt>
      <trkpt lat="43.78959" lon="7.25056">
        <ele>645</ele>
        <time>2010-12-18T08:31:18Z</time>
      </trkpt>
      <trkpt lat="43.78952" lon="7.25046">
        <ele>646</ele>
        <time>2010-12-18T08:31:21Z</time>
      </trkpt>
      <trkpt lat="43.78942" lon="7.25041">
        <ele>647</ele>
        <time>2010-12-18T08:31:24Z</time>
      </trkpt>
      <trkpt lat="43.78931" lon="7.2504">
        <ele>648</ele>
        <time>2010-12-18T08:31:27Z</time>
      </trkpt>
      <trkpt lat="43.78921" lon="7.2504">
        <ele>648</ele>
        <time>2010-12-18T08:31:29Z</time>
      </trkpt>
      <trkpt lat="43.78912" lon="7.2504">
        <ele>649</ele>
        <time>2010-12-18T08:31:31Z</time>
      </trkpt>
      <trkpt lat="43.78902" lon="7.25041">
        <ele>649</ele>
        <time>2010-12-18T08:31:33Z</time>
      </trkpt>
      <trkpt lat="43.78896" lon="7.25042">
        <ele>649</ele>
        <time>2010-12-18T08:31:35Z</time>
      </trkpt>
      <trkpt lat="43.78884" lon="7.25044">
        <ele>649</ele>
        <time>2010-12-18T08:31:38Z</time>
      </trkpt>
      <trkpt lat="43.78873" lon="7.25047">
        <ele>649</ele>
        <time>2010-12-18T08:31:41Z</time>
      </trkpt>
      <trkpt lat="43.78862" lon="7.25049">
        <ele>650</ele>
        <time>2010-12-18T08:31:44Z</time>
      </trkpt>
      <trkpt lat="43.7885" lon="7.25051">
        <ele>650</ele>
        <time>2010-12-18T08:31:47Z</time>
      </trkpt>
      <trkpt lat="43.78838" lon="7.25052">
        <ele>651</ele>
        <time>2010-12-18T08:31:50Z</time>
      </trkpt>
      <trkpt lat="43.78827" lon="7.25052">
        <ele>651</ele>
        <time>2010-12-18T08:31:53Z</time>
      </trkpt>
      <trkpt lat="43.78817" lon="7.25052">
        <ele>651</ele>
        <time>2010-12-18T08:31:55Z</time>
      </trkpt>
      <trkpt lat="43.78807" lon="7.2505">
        <ele>650</ele>
        <time>2010-12-18T08:31:58Z</time>
      </trkpt>
      <trkpt lat="43.78804" lon="7.2505">
        <ele>650</ele>
        <time>2010-12-18T08:31:58Z</time>
      </trkpt>
      <trkpt lat="43.78795" lon="7.25049">
        <ele>650</ele>
        <time>2010-12-18T08:32:00Z</time>
      </trkpt>
      <trkpt lat="43.78785" lon="7.25047">
        <ele>651</ele>
        <time>2010-12-18T08:32:03Z</time>
      </trkpt>
      <trkpt lat="43.78775" lon="7.25044">
        <ele>650</ele>
        <time>2010-12-18T08:32:05Z</time>
      </trkpt>
      <trkpt lat="43.78777" lon="7.25031">
        <ele>649</ele>
        <time>2010-12-18T08:32:13Z</time>
      </trkpt>
      <trkpt lat="43.78787" lon="7.25021">
        <ele>646</ele>
        <time>2010-12-18T08:32:21Z</time>
      </trkpt>
      <trkpt lat="43.7879" lon="7.25007">
        <ele>646</ele>
        <time>2010-12-18T08:32:27Z</time>
      </trkpt>
      <trkpt lat="43.78794" lon="7.24986">
        <ele>647</ele>
        <time>2010-12-18T08:32:34Z</time>
      </trkpt>
      <trkpt lat="43.78796" lon="7.24972">
        <ele>648</ele>
        <time>2010-12-18T08:32:37Z</time>
      </trkpt>
      <trkpt lat="43.78798" lon="7.24959">
        <ele>648</ele>
        <time>2010-12-18T08:32:40Z</time>
      </trkpt>
      <trkpt lat="43.78799" lon="7.24953">
        <ele>648</ele>
        <time>2010-12-18T08:32:42Z</time>
      </trkpt>
      <trkpt lat="43.78799" lon="7.2495">
        <ele>648</ele>
        <time>2010-12-18T08:32:43Z</time>
      </trkpt>
      <trkpt lat="43.78802" lon="7.24937">
        <ele>648</ele>
        <time>2010-12-18T08:32:46Z</time>
      </trkpt>
      <trkpt lat="43.78804" lon="7.24923">
        <ele>647</ele>
        <time>2010-12-18T08:32:50Z</time>
      </trkpt>
      <trkpt lat="43.78806" lon="7.2491">
        <ele>647</ele>
        <time>2010-12-18T08:32:53Z</time>
      </trkpt>
      <trkpt lat="43.78808" lon="7.24895">
        <ele>647</ele>
        <time>2010-12-18T08:32:56Z</time>
      </trkpt>
      <trkpt lat="43.78811" lon="7.24881">
        <ele>647</ele>
        <time>2010-12-18T08:33:00Z</time>
      </trkpt>
      <trkpt lat="43.78813" lon="7.24865">
        <ele>647</ele>
        <time>2010-12-18T08:33:03Z</time>
      </trkpt>
      <trkpt lat="43.78814" lon="7.24847">
        <ele>647</ele>
        <time>2010-12-18T08:33:05Z</time>
      </trkpt>
      <trkpt lat="43.78815" lon="7.24833">
        <ele>646</ele>
        <time>2010-12-18T08:33:07Z</time>
      </trkpt>
      <trkpt lat="43.78818" lon="7.24818">
        <ele>646</ele>
        <time>2010-12-18T08:33:08Z</time>
      </trkpt>
      <trkpt lat="43.78821" lon="7.24804">
        <ele>646</ele>
        <time>2010-12-18T08:33:10Z</time>
      </trkpt>
      <trkpt lat="43.78824" lon="7.24788">
        <ele>645</ele>
        <time>2010-12-18T08:33:11Z</time>
      </trkpt>
      <trkpt lat="43.78827" lon="7.24773">
        <ele>645</ele>
        <time>2010-12-18T08:33:13Z</time>
      </trkpt>
      <trkpt lat="43.78831" lon="7.24758">
        <ele>644</ele>
        <time>2010-12-18T08:33:14Z</time>
      </trkpt>
      <trkpt lat="43.78834" lon="7.24745">
        <ele>644</ele>
        <time>2010-12-18T08:33:16Z</time>
      </trkpt>
      <trkpt lat="43.78836" lon="7.24733">
        <ele>643</ele>
        <time>2010-12-18T08:33:17Z</time>
      </trkpt>
      <trkpt lat="43.7884" lon="7.24716">
        <ele>644</ele>
        <time>2010-12-18T08:33:19Z</time>
      </trkpt>
      <trkpt lat="43.78844" lon="7.247">
        <ele>643</ele>
        <time>2010-12-18T08:33:22Z</time>
      </trkpt>
      <trkpt lat="43.78847" lon="7.24687">
        <ele>643</ele>
        <time>2010-12-18T08:33:24Z</time>
      </trkpt>
      <trkpt lat="43.78852" lon="7.24674">
        <ele>643</ele>
        <time>2010-12-18T08:33:26Z</time>
      </trkpt>
      <trkpt lat="43.78856" lon="7.24661">
        <ele>643</ele>
        <time>2010-12-18T08:33:29Z</time>
      </trkpt>
      <trkpt lat="43.78847" lon="7.24649">
        <ele>643</ele>
        <time>2010-12-18T08:33:32Z</time>
      </trkpt>
      <trkpt lat="43.7884" lon="7.24641">
        <ele>643</ele>
        <time>2010-12-18T08:33:34Z</time>
      </trkpt>
      <trkpt lat="43.78832" lon="7.24632">
        <ele>643</ele>
        <time>2010-12-18T08:33:35Z</time>
      </trkpt>
      <trkpt lat="43.78823" lon="7.24623">
        <ele>643</ele>
        <time>2010-12-18T08:33:37Z</time>
      </trkpt>
      <trkpt lat="43.78817" lon="7.24614">
        <ele>643</ele>
        <time>2010-12-18T08:33:38Z</time>
      </trkpt>
      <trkpt lat="43.78818" lon="7.246">
        <ele>642</ele>
        <time>2010-12-18T08:33:41Z</time>
      </trkpt>
      <trkpt lat="43.78827" lon="7.24593">
        <ele>641</ele>
        <time>2010-12-18T08:33:44Z</time>
      </trkpt>
      <trkpt lat="43.78836" lon="7.24585">
        <ele>641</ele>
        <time>2010-12-18T08:33:47Z</time>
      </trkpt>
      <trkpt lat="43.7884" lon="7.24569">
        <ele>640</ele>
        <time>2010-12-18T08:33:49Z</time>
      </trkpt>
      <trkpt lat="43.78834" lon="7.24554">
        <ele>640</ele>
        <time>2010-12-18T08:33:51Z</time>
      </trkpt>
      <trkpt lat="43.78826" lon="7.24543">
        <ele>640</ele>
        <time>2010-12-18T08:33:53Z</time>
      </trkpt>
      <trkpt lat="43.78813" lon="7.24531">
        <ele>640</ele>
        <time>2010-12-18T08:33:54Z</time>
      </trkpt>
      <trkpt lat="43.788" lon="7.24519">
        <ele>639</ele>
        <time>2010-12-18T08:33:56Z</time>
      </trkpt>
      <trkpt lat="43.78786" lon="7.24509">
        <ele>638</ele>
        <time>2010-12-18T08:33:57Z</time>
      </trkpt>
      <trkpt lat="43.78778" lon="7.24502">
        <ele>638</ele>
        <time>2010-12-18T08:33:59Z</time>
      </trkpt>
      <trkpt lat="43.78772" lon="7.24492">
        <ele>637</ele>
        <time>2010-12-18T08:34:00Z</time>
      </trkpt>
      <trkpt lat="43.7877" lon="7.24479">
        <ele>637</ele>
        <time>2010-12-18T08:34:02Z</time>
      </trkpt>
      <trkpt lat="43.78768" lon="7.24466">
        <ele>636</ele>
        <time>2010-12-18T08:34:03Z</time>
      </trkpt>
      <trkpt lat="43.78765" lon="7.24453">
        <ele>636</ele>
        <time>2010-12-18T08:34:05Z</time>
      </trkpt>
      <trkpt lat="43.7876" lon="7.24441">
        <ele>635</ele>
        <time>2010-12-18T08:34:06Z</time>
      </trkpt>
      <trkpt lat="43.78754" lon="7.2443">
        <ele>633</ele>
        <time>2010-12-18T08:34:08Z</time>
      </trkpt>
      <trkpt lat="43.78745" lon="7.2442">
        <ele>632</ele>
        <time>2010-12-18T08:34:09Z</time>
      </trkpt>
      <trkpt lat="43.78736" lon="7.24412">
        <ele>631</ele>
        <time>2010-12-18T08:34:11Z</time>
      </trkpt>
      <trkpt lat="43.78726" lon="7.24405">
        <ele>630</ele>
        <time>2010-12-18T08:34:12Z</time>
      </trkpt>
      <trkpt lat="43.78716" lon="7.24401">
        <ele>628</ele>
        <time>2010-12-18T08:34:14Z</time>
      </trkpt>
      <trkpt lat="43.78705" lon="7.24399">
        <ele>628</ele>
        <time>2010-12-18T08:34:15Z</time>
      </trkpt>
      <trkpt lat="43.78692" lon="7.24399">
        <ele>627</ele>
        <time>2010-12-18T08:34:17Z</time>
      </trkpt>
      <trkpt lat="43.7868" lon="7.244">
        <ele>626</ele>
        <time>2010-12-18T08:34:18Z</time>
      </trkpt>
      <trkpt lat="43.78669" lon="7.24401">
        <ele>625</ele>
        <time>2010-12-18T08:34:20Z</time>
      </trkpt>
      <trkpt lat="43.78657" lon="7.24402">
        <ele>624</ele>
        <time>2010-12-18T08:34:23Z</time>
      </trkpt>
      <trkpt lat="43.78644" lon="7.24406">
        <ele>622</ele>
        <time>2010-12-18T08:34:25Z</time>
      </trkpt>
      <trkpt lat="43.78633" lon="7.24411">
        <ele>620</ele>
        <time>2010-12-18T08:34:26Z</time>
      </trkpt>
      <trkpt lat="43.78621" lon="7.24418">
        <ele>619</ele>
        <time>2010-12-18T08:34:28Z</time>
      </trkpt>
      <trkpt lat="43.78608" lon="7.24423">
        <ele>617</ele>
        <time>2010-12-18T08:34:29Z</time>
      </trkpt>
      <trkpt lat="43.78594" lon="7.24424">
        <ele>615</ele>
        <time>2010-12-18T08:34:31Z</time>
      </trkpt>
      <trkpt lat="43.7858" lon="7.24423">
        <ele>613</ele>
        <time>2010-12-18T08:34:32Z</time>
      </trkpt>
      <trkpt lat="43.78566" lon="7.24421">
        <ele>610</ele>
        <time>2010-12-18T08:34:34Z</time>
      </trkpt>
      <trkpt lat="43.78553" lon="7.24419">
        <ele>608</ele>
        <time>2010-12-18T08:34:35Z</time>
      </trkpt>
      <trkpt lat="43.78539" lon="7.24414">
        <ele>605</ele>
        <time>2010-12-18T08:34:37Z</time>
      </trkpt>
      <trkpt lat="43.78524" lon="7.24406">
        <ele>603</ele>
        <time>2010-12-18T08:34:38Z</time>
      </trkpt>
      <trkpt lat="43.7851" lon="7.24398">
        <ele>601</ele>
        <time>2010-12-18T08:34:40Z</time>
      </trkpt>
      <trkpt lat="43.78495" lon="7.24389">
        <ele>599</ele>
        <time>2010-12-18T08:34:41Z</time>
      </trkpt>
      <trkpt lat="43.78482" lon="7.24379">
        <ele>597</ele>
        <time>2010-12-18T08:34:42Z</time>
      </trkpt>
      <trkpt lat="43.78471" lon="7.24371">
        <ele>597</ele>
        <time>2010-12-18T08:34:44Z</time>
      </trkpt>
      <trkpt lat="43.7846" lon="7.24363">
        <ele>597</ele>
        <time>2010-12-18T08:34:45Z</time>
      </trkpt>
      <trkpt lat="43.78449" lon="7.24359">
        <ele>596</ele>
        <time>2010-12-18T08:34:47Z</time>
      </trkpt>
      <trkpt lat="43.78439" lon="7.24357">
        <ele>594</ele>
        <time>2010-12-18T08:34:49Z</time>
      </trkpt>
      <trkpt lat="43.78435" lon="7.24357">
        <ele>593</ele>
        <time>2010-12-18T08:34:52Z</time>
      </trkpt>
      <trkpt lat="43.78431" lon="7.24371">
        <ele>586</ele>
        <time>2010-12-18T08:34:59Z</time>
      </trkpt>
      <trkpt lat="43.7843" lon="7.24387">
        <ele>583</ele>
        <time>2010-12-18T08:35:02Z</time>
      </trkpt>
      <trkpt lat="43.78429" lon="7.244">
        <ele>581</ele>
        <time>2010-12-18T08:35:05Z</time>
      </trkpt>
      <trkpt lat="43.78429" lon="7.24413">
        <ele>573</ele>
        <time>2010-12-18T08:35:19Z</time>
      </trkpt>
      <trkpt lat="43.78432" lon="7.24427">
        <ele>573</ele>
        <time>2010-12-18T08:35:23Z</time>
      </trkpt>
      <trkpt lat="43.78444" lon="7.24436">
        <ele>567</ele>
        <time>2010-12-18T08:35:37Z</time>
      </trkpt>
    </trkseg>
  </trk>
</gpx>